<?xml version="1.0" encoding="UTF-8" standalone="no" ?>
<gpx xmlns="http://www.topografix.com/GPX/1/1" xmlns:xsi="http://www.w3.org/2001/XMLSchema-instance" xsi:schemaLocation="http://www.topografix.com/GPX/1/1 http://www.topografix.com/GPX/1/1/gpx.xsd" version="1.1" creator="VisuGPX - https://www.visugpx.com">
  <metadata>
    <name>Charnier de Signes-Château Renard </name>
    <desc><![CDATA[Petite ballade tranquille et sans difficulté]]></desc>
  </metadata>
  <trk>
    <name><![CDATA[Charnier de Signes-Château Renard _1]]></name>
    <trkseg>
      <trkpt lat="43.26423" lon="5.76521">
        <ele>424.899993</ele>
        <time>2017-10-18T06:38:10Z</time>
      </trkpt>
      <trkpt lat="43.26422" lon="5.76523">
        <ele>425.5</ele>
        <time>2017-10-18T06:38:11Z</time>
      </trkpt>
      <trkpt lat="43.26437" lon="5.76504">
        <ele>409.2</ele>
        <time>2017-10-18T06:39:29Z</time>
      </trkpt>
      <trkpt lat="43.26467" lon="5.76483">
        <ele>411.7</ele>
        <time>2017-10-18T06:40:03Z</time>
      </trkpt>
      <trkpt lat="43.26483" lon="5.76472">
        <ele>409.6</ele>
        <time>2017-10-18T06:40:20Z</time>
      </trkpt>
      <trkpt lat="43.26499" lon="5.76462">
        <ele>405</ele>
        <time>2017-10-18T06:40:36Z</time>
      </trkpt>
      <trkpt lat="43.265" lon="5.76461">
        <ele>405.3</ele>
        <time>2017-10-18T06:40:37Z</time>
      </trkpt>
      <trkpt lat="43.26529" lon="5.76434">
        <ele>408.1</ele>
        <time>2017-10-18T06:41:07Z</time>
      </trkpt>
      <trkpt lat="43.26544" lon="5.76421">
        <ele>406.3</ele>
        <time>2017-10-18T06:41:25Z</time>
      </trkpt>
      <trkpt lat="43.26559" lon="5.76409">
        <ele>403.6</ele>
        <time>2017-10-18T06:41:40Z</time>
      </trkpt>
      <trkpt lat="43.2656" lon="5.76408">
        <ele>403.6</ele>
        <time>2017-10-18T06:41:41Z</time>
      </trkpt>
      <trkpt lat="43.26585" lon="5.76377">
        <ele>407.7</ele>
        <time>2017-10-18T06:42:14Z</time>
      </trkpt>
      <trkpt lat="43.26595" lon="5.76357">
        <ele>407</ele>
        <time>2017-10-18T06:42:31Z</time>
      </trkpt>
      <trkpt lat="43.26606" lon="5.76338">
        <ele>408.6</ele>
        <time>2017-10-18T06:42:48Z</time>
      </trkpt>
      <trkpt lat="43.26607" lon="5.76337">
        <ele>408.7</ele>
        <time>2017-10-18T06:42:49Z</time>
      </trkpt>
      <trkpt lat="43.26627" lon="5.76301">
        <ele>410.1</ele>
        <time>2017-10-18T06:43:20Z</time>
      </trkpt>
      <trkpt lat="43.26638" lon="5.76282">
        <ele>408.1</ele>
        <time>2017-10-18T06:43:37Z</time>
      </trkpt>
      <trkpt lat="43.26649" lon="5.76262">
        <ele>407.7</ele>
        <time>2017-10-18T06:43:54Z</time>
      </trkpt>
      <trkpt lat="43.26649" lon="5.76261">
        <ele>407.5</ele>
        <time>2017-10-18T06:43:55Z</time>
      </trkpt>
      <trkpt lat="43.2666" lon="5.76216">
        <ele>407.1</ele>
        <time>2017-10-18T06:44:30Z</time>
      </trkpt>
      <trkpt lat="43.26663" lon="5.76193">
        <ele>409.1</ele>
        <time>2017-10-18T06:44:46Z</time>
      </trkpt>
      <trkpt lat="43.26664" lon="5.76168">
        <ele>408.7</ele>
        <time>2017-10-18T06:45:04Z</time>
      </trkpt>
      <trkpt lat="43.26665" lon="5.76167">
        <ele>408.8</ele>
        <time>2017-10-18T06:45:05Z</time>
      </trkpt>
      <trkpt lat="43.26667" lon="5.76121">
        <ele>411.1</ele>
        <time>2017-10-18T06:45:34Z</time>
      </trkpt>
      <trkpt lat="43.26674" lon="5.76099">
        <ele>411.2</ele>
        <time>2017-10-18T06:45:49Z</time>
      </trkpt>
      <trkpt lat="43.26681" lon="5.76078">
        <ele>411.8</ele>
        <time>2017-10-18T06:46:05Z</time>
      </trkpt>
      <trkpt lat="43.26681" lon="5.76076">
        <ele>412</ele>
        <time>2017-10-18T06:46:06Z</time>
      </trkpt>
      <trkpt lat="43.26694" lon="5.76034">
        <ele>411.5</ele>
        <time>2017-10-18T06:46:33Z</time>
      </trkpt>
      <trkpt lat="43.26698" lon="5.7601">
        <ele>409.7</ele>
        <time>2017-10-18T06:46:49Z</time>
      </trkpt>
      <trkpt lat="43.26705" lon="5.75989">
        <ele>411.1</ele>
        <time>2017-10-18T06:47:04Z</time>
      </trkpt>
      <trkpt lat="43.26708" lon="5.75965">
        <ele>409.3</ele>
        <time>2017-10-18T06:47:20Z</time>
      </trkpt>
      <trkpt lat="43.26707" lon="5.75963">
        <ele>409.5</ele>
        <time>2017-10-18T06:47:21Z</time>
      </trkpt>
      <trkpt lat="43.26722" lon="5.75924">
        <ele>407</ele>
        <time>2017-10-18T06:47:49Z</time>
      </trkpt>
      <trkpt lat="43.26738" lon="5.75916">
        <ele>401.8</ele>
        <time>2017-10-18T06:48:05Z</time>
      </trkpt>
      <trkpt lat="43.26756" lon="5.75921">
        <ele>397.7</ele>
        <time>2017-10-18T06:48:22Z</time>
      </trkpt>
      <trkpt lat="43.26757" lon="5.75921">
        <ele>397.6</ele>
        <time>2017-10-18T06:48:23Z</time>
      </trkpt>
      <trkpt lat="43.2677" lon="5.75962">
        <ele>392.1</ele>
        <time>2017-10-18T06:48:57Z</time>
      </trkpt>
      <trkpt lat="43.26772" lon="5.75985">
        <ele>392.6</ele>
        <time>2017-10-18T06:49:11Z</time>
      </trkpt>
      <trkpt lat="43.26778" lon="5.76007">
        <ele>392.6</ele>
        <time>2017-10-18T06:49:27Z</time>
      </trkpt>
      <trkpt lat="43.26779" lon="5.76009">
        <ele>392.7</ele>
        <time>2017-10-18T06:49:28Z</time>
      </trkpt>
      <trkpt lat="43.26809" lon="5.75992">
        <ele>393.5</ele>
        <time>2017-10-18T06:50:00Z</time>
      </trkpt>
      <trkpt lat="43.26816" lon="5.7597">
        <ele>391.7</ele>
        <time>2017-10-18T06:50:17Z</time>
      </trkpt>
      <trkpt lat="43.26819" lon="5.75946">
        <ele>388</ele>
        <time>2017-10-18T06:50:33Z</time>
      </trkpt>
      <trkpt lat="43.26819" lon="5.75945">
        <ele>387.7</ele>
        <time>2017-10-18T06:50:34Z</time>
      </trkpt>
      <trkpt lat="43.26839" lon="5.75943">
        <ele>376.6</ele>
        <time>2017-10-18T06:51:28Z</time>
      </trkpt>
      <trkpt lat="43.26838" lon="5.75919">
        <ele>375.6</ele>
        <time>2017-10-18T06:51:44Z</time>
      </trkpt>
      <trkpt lat="43.26838" lon="5.75917">
        <ele>375.3</ele>
        <time>2017-10-18T06:51:45Z</time>
      </trkpt>
      <trkpt lat="43.26842" lon="5.75871">
        <ele>386</ele>
        <time>2017-10-18T06:52:16Z</time>
      </trkpt>
      <trkpt lat="43.26854" lon="5.75854">
        <ele>375.2</ele>
        <time>2017-10-18T06:52:36Z</time>
      </trkpt>
      <trkpt lat="43.2687" lon="5.75861">
        <ele>368.3</ele>
        <time>2017-10-18T06:52:54Z</time>
      </trkpt>
      <trkpt lat="43.26871" lon="5.75861">
        <ele>368.1</ele>
        <time>2017-10-18T06:52:55Z</time>
      </trkpt>
      <trkpt lat="43.26894" lon="5.75894">
        <ele>365.2</ele>
        <time>2017-10-18T06:53:26Z</time>
      </trkpt>
      <trkpt lat="43.26905" lon="5.75912">
        <ele>366.7</ele>
        <time>2017-10-18T06:53:44Z</time>
      </trkpt>
      <trkpt lat="43.2692" lon="5.75899">
        <ele>364.7</ele>
        <time>2017-10-18T06:54:03Z</time>
      </trkpt>
      <trkpt lat="43.26921" lon="5.75898">
        <ele>363.8</ele>
        <time>2017-10-18T06:54:04Z</time>
      </trkpt>
      <trkpt lat="43.26954" lon="5.75888">
        <ele>363.2</ele>
        <time>2017-10-18T06:54:32Z</time>
      </trkpt>
      <trkpt lat="43.26971" lon="5.75887">
        <ele>365.6</ele>
        <time>2017-10-18T06:54:45Z</time>
      </trkpt>
      <trkpt lat="43.26988" lon="5.75889">
        <ele>363.2</ele>
        <time>2017-10-18T06:55:01Z</time>
      </trkpt>
      <trkpt lat="43.27005" lon="5.75892">
        <ele>359.8</ele>
        <time>2017-10-18T06:55:17Z</time>
      </trkpt>
      <trkpt lat="43.27006" lon="5.75892">
        <ele>359.6</ele>
        <time>2017-10-18T06:55:18Z</time>
      </trkpt>
      <trkpt lat="43.27039" lon="5.75887">
        <ele>357</ele>
        <time>2017-10-18T06:55:53Z</time>
      </trkpt>
      <trkpt lat="43.27055" lon="5.75879">
        <ele>356.1</ele>
        <time>2017-10-18T06:56:10Z</time>
      </trkpt>
      <trkpt lat="43.27073" lon="5.75874">
        <ele>355.8</ele>
        <time>2017-10-18T06:56:26Z</time>
      </trkpt>
      <trkpt lat="43.27074" lon="5.75874">
        <ele>355.6</ele>
        <time>2017-10-18T06:56:27Z</time>
      </trkpt>
      <trkpt lat="43.27107" lon="5.75873">
        <ele>356</ele>
        <time>2017-10-18T06:56:51Z</time>
      </trkpt>
      <trkpt lat="43.27124" lon="5.75878">
        <ele>357.7</ele>
        <time>2017-10-18T06:57:03Z</time>
      </trkpt>
      <trkpt lat="43.27138" lon="5.75893">
        <ele>360.8</ele>
        <time>2017-10-18T06:57:19Z</time>
      </trkpt>
      <trkpt lat="43.27144" lon="5.75915">
        <ele>361.5</ele>
        <time>2017-10-18T06:57:33Z</time>
      </trkpt>
      <trkpt lat="43.27145" lon="5.75917">
        <ele>361.5</ele>
        <time>2017-10-18T06:57:34Z</time>
      </trkpt>
      <trkpt lat="43.27144" lon="5.75962">
        <ele>366.7</ele>
        <time>2017-10-18T06:58:00Z</time>
      </trkpt>
      <trkpt lat="43.27146" lon="5.75986">
        <ele>367.5</ele>
        <time>2017-10-18T06:58:16Z</time>
      </trkpt>
      <trkpt lat="43.27153" lon="5.76008">
        <ele>365.8</ele>
        <time>2017-10-18T06:58:33Z</time>
      </trkpt>
      <trkpt lat="43.27167" lon="5.76022">
        <ele>363.5</ele>
        <time>2017-10-18T06:58:51Z</time>
      </trkpt>
      <trkpt lat="43.27168" lon="5.76022">
        <ele>363.2</ele>
        <time>2017-10-18T06:58:52Z</time>
      </trkpt>
      <trkpt lat="43.272" lon="5.76028">
        <ele>364.1</ele>
        <time>2017-10-18T06:59:27Z</time>
      </trkpt>
      <trkpt lat="43.27215" lon="5.76015">
        <ele>364.8</ele>
        <time>2017-10-18T06:59:47Z</time>
      </trkpt>
      <trkpt lat="43.27231" lon="5.76004">
        <ele>360.7</ele>
        <time>2017-10-18T07:00:01Z</time>
      </trkpt>
      <trkpt lat="43.27231" lon="5.76003">
        <ele>359.8</ele>
        <time>2017-10-18T07:00:02Z</time>
      </trkpt>
      <trkpt lat="43.27262" lon="5.75985">
        <ele>373.2</ele>
        <time>2017-10-18T07:00:29Z</time>
      </trkpt>
      <trkpt lat="43.27278" lon="5.75975">
        <ele>357.5</ele>
        <time>2017-10-18T07:00:44Z</time>
      </trkpt>
      <trkpt lat="43.27294" lon="5.75964">
        <ele>370.7</ele>
        <time>2017-10-18T07:01:00Z</time>
      </trkpt>
      <trkpt lat="43.27309" lon="5.75952">
        <ele>353.2</ele>
        <time>2017-10-18T07:01:16Z</time>
      </trkpt>
      <trkpt lat="43.2731" lon="5.75952">
        <ele>352.2</ele>
        <time>2017-10-18T07:01:17Z</time>
      </trkpt>
      <trkpt lat="43.2734" lon="5.75933">
        <ele>343.2</ele>
        <time>2017-10-18T07:01:49Z</time>
      </trkpt>
      <trkpt lat="43.27358" lon="5.75929">
        <ele>348.2</ele>
        <time>2017-10-18T07:02:04Z</time>
      </trkpt>
      <trkpt lat="43.27375" lon="5.75924">
        <ele>349.7</ele>
        <time>2017-10-18T07:02:21Z</time>
      </trkpt>
      <trkpt lat="43.27376" lon="5.75924">
        <ele>349.2</ele>
        <time>2017-10-18T07:02:22Z</time>
      </trkpt>
      <trkpt lat="43.2741" lon="5.75914">
        <ele>337.7</ele>
        <time>2017-10-18T07:02:55Z</time>
      </trkpt>
      <trkpt lat="43.27427" lon="5.75918">
        <ele>350.6</ele>
        <time>2017-10-18T07:03:08Z</time>
      </trkpt>
      <trkpt lat="43.27442" lon="5.75931">
        <ele>361</ele>
        <time>2017-10-18T07:03:22Z</time>
      </trkpt>
      <trkpt lat="43.27443" lon="5.75932">
        <ele>361.2</ele>
        <time>2017-10-18T07:03:23Z</time>
      </trkpt>
      <trkpt lat="43.27467" lon="5.75963">
        <ele>368</ele>
        <time>2017-10-18T07:03:54Z</time>
      </trkpt>
      <trkpt lat="43.27476" lon="5.75984">
        <ele>377.8</ele>
        <time>2017-10-18T07:04:09Z</time>
      </trkpt>
      <trkpt lat="43.27486" lon="5.76004">
        <ele>377.7</ele>
        <time>2017-10-18T07:04:25Z</time>
      </trkpt>
      <trkpt lat="43.27486" lon="5.76005">
        <ele>375.7</ele>
        <time>2017-10-18T07:04:26Z</time>
      </trkpt>
      <trkpt lat="43.27498" lon="5.76048">
        <ele>370.8</ele>
        <time>2017-10-18T07:04:58Z</time>
      </trkpt>
      <trkpt lat="43.27504" lon="5.76072">
        <ele>373.5</ele>
        <time>2017-10-18T07:05:15Z</time>
      </trkpt>
      <trkpt lat="43.2751" lon="5.76094">
        <ele>364.3</ele>
        <time>2017-10-18T07:05:34Z</time>
      </trkpt>
      <trkpt lat="43.2751" lon="5.76095">
        <ele>364.2</ele>
        <time>2017-10-18T07:05:35Z</time>
      </trkpt>
      <trkpt lat="43.27509" lon="5.76142">
        <ele>374.1</ele>
        <time>2017-10-18T07:06:00Z</time>
      </trkpt>
      <trkpt lat="43.27507" lon="5.76165">
        <ele>376.1</ele>
        <time>2017-10-18T07:06:15Z</time>
      </trkpt>
      <trkpt lat="43.27505" lon="5.7619">
        <ele>374.7</ele>
        <time>2017-10-18T07:06:31Z</time>
      </trkpt>
      <trkpt lat="43.27501" lon="5.76213">
        <ele>374.2</ele>
        <time>2017-10-18T07:06:48Z</time>
      </trkpt>
      <trkpt lat="43.27501" lon="5.76215">
        <ele>374.3</ele>
        <time>2017-10-18T07:06:49Z</time>
      </trkpt>
      <trkpt lat="43.2749" lon="5.76256">
        <ele>375.1</ele>
        <time>2017-10-18T07:07:24Z</time>
      </trkpt>
      <trkpt lat="43.27494" lon="5.76279">
        <ele>372.7</ele>
        <time>2017-10-18T07:07:40Z</time>
      </trkpt>
      <trkpt lat="43.27496" lon="5.76302">
        <ele>370.8</ele>
        <time>2017-10-18T07:07:56Z</time>
      </trkpt>
      <trkpt lat="43.27496" lon="5.76304">
        <ele>371.1</ele>
        <time>2017-10-18T07:07:57Z</time>
      </trkpt>
      <trkpt lat="43.27504" lon="5.76349">
        <ele>370.2</ele>
        <time>2017-10-18T07:08:34Z</time>
      </trkpt>
      <trkpt lat="43.27515" lon="5.76368">
        <ele>372.7</ele>
        <time>2017-10-18T07:08:50Z</time>
      </trkpt>
      <trkpt lat="43.27526" lon="5.76387">
        <ele>373.8</ele>
        <time>2017-10-18T07:09:05Z</time>
      </trkpt>
      <trkpt lat="43.27527" lon="5.76388">
        <ele>373.5</ele>
        <time>2017-10-18T07:09:06Z</time>
      </trkpt>
      <trkpt lat="43.27551" lon="5.76421">
        <ele>378.7</ele>
        <time>2017-10-18T07:09:57Z</time>
      </trkpt>
      <trkpt lat="43.27564" lon="5.76438">
        <ele>380.8</ele>
        <time>2017-10-18T07:18:40Z</time>
      </trkpt>
      <trkpt lat="43.27565" lon="5.76439">
        <ele>381.2</ele>
        <time>2017-10-18T07:18:41Z</time>
      </trkpt>
      <trkpt lat="43.2759" lon="5.76469">
        <ele>383.5</ele>
        <time>2017-10-18T07:19:16Z</time>
      </trkpt>
      <trkpt lat="43.27601" lon="5.76487">
        <ele>381.3</ele>
        <time>2017-10-18T07:19:32Z</time>
      </trkpt>
      <trkpt lat="43.27615" lon="5.76502">
        <ele>379.6</ele>
        <time>2017-10-18T07:19:49Z</time>
      </trkpt>
      <trkpt lat="43.27616" lon="5.76503">
        <ele>379.8</ele>
        <time>2017-10-18T07:19:50Z</time>
      </trkpt>
      <trkpt lat="43.27644" lon="5.76526">
        <ele>378.6</ele>
        <time>2017-10-18T07:20:23Z</time>
      </trkpt>
      <trkpt lat="43.27656" lon="5.76544">
        <ele>404.1</ele>
        <time>2017-10-18T07:25:34Z</time>
      </trkpt>
      <trkpt lat="43.27657" lon="5.76545">
        <ele>403.6</ele>
        <time>2017-10-18T07:25:35Z</time>
      </trkpt>
      <trkpt lat="43.27658" lon="5.76592">
        <ele>388.5</ele>
        <time>2017-10-18T07:26:15Z</time>
      </trkpt>
      <trkpt lat="43.27651" lon="5.76615">
        <ele>379.8</ele>
        <time>2017-10-18T07:26:38Z</time>
      </trkpt>
      <trkpt lat="43.27651" lon="5.76616">
        <ele>379.8</ele>
        <time>2017-10-18T07:26:39Z</time>
      </trkpt>
      <trkpt lat="43.27627" lon="5.76651">
        <ele>369.3</ele>
        <time>2017-10-18T07:27:27Z</time>
      </trkpt>
      <trkpt lat="43.2762" lon="5.76673">
        <ele>375.2</ele>
        <time>2017-10-18T07:27:49Z</time>
      </trkpt>
      <trkpt lat="43.27619" lon="5.76674">
        <ele>375.3</ele>
        <time>2017-10-18T07:27:50Z</time>
      </trkpt>
      <trkpt lat="43.27625" lon="5.7672">
        <ele>386.3</ele>
        <time>2017-10-18T07:28:27Z</time>
      </trkpt>
      <trkpt lat="43.27628" lon="5.76743">
        <ele>390.8</ele>
        <time>2017-10-18T07:28:49Z</time>
      </trkpt>
      <trkpt lat="43.27635" lon="5.76766">
        <ele>390.5</ele>
        <time>2017-10-18T07:29:10Z</time>
      </trkpt>
      <trkpt lat="43.27635" lon="5.76767">
        <ele>391</ele>
        <time>2017-10-18T07:29:11Z</time>
      </trkpt>
      <trkpt lat="43.27645" lon="5.76811">
        <ele>399</ele>
        <time>2017-10-18T07:29:47Z</time>
      </trkpt>
      <trkpt lat="43.27651" lon="5.76833">
        <ele>406.2</ele>
        <time>2017-10-18T07:30:04Z</time>
      </trkpt>
      <trkpt lat="43.27663" lon="5.76852">
        <ele>412.5</ele>
        <time>2017-10-18T07:30:22Z</time>
      </trkpt>
      <trkpt lat="43.27663" lon="5.76853">
        <ele>413</ele>
        <time>2017-10-18T07:30:23Z</time>
      </trkpt>
      <trkpt lat="43.27684" lon="5.76889">
        <ele>413.2</ele>
        <time>2017-10-18T07:30:56Z</time>
      </trkpt>
      <trkpt lat="43.27692" lon="5.7691">
        <ele>413.7</ele>
        <time>2017-10-18T07:31:13Z</time>
      </trkpt>
      <trkpt lat="43.27701" lon="5.7693">
        <ele>423.5</ele>
        <time>2017-10-18T07:31:29Z</time>
      </trkpt>
      <trkpt lat="43.27701" lon="5.76931">
        <ele>423.6</ele>
        <time>2017-10-18T07:31:30Z</time>
      </trkpt>
      <trkpt lat="43.27719" lon="5.76973">
        <ele>421.6</ele>
        <time>2017-10-18T07:32:04Z</time>
      </trkpt>
      <trkpt lat="43.27729" lon="5.76992">
        <ele>427.7</ele>
        <time>2017-10-18T07:32:22Z</time>
      </trkpt>
      <trkpt lat="43.27737" lon="5.77014">
        <ele>421.6</ele>
        <time>2017-10-18T07:32:41Z</time>
      </trkpt>
      <trkpt lat="43.27738" lon="5.77014">
        <ele>421.6</ele>
        <time>2017-10-18T07:32:42Z</time>
      </trkpt>
      <trkpt lat="43.27761" lon="5.7705">
        <ele>421.5</ele>
        <time>2017-10-18T07:33:18Z</time>
      </trkpt>
      <trkpt lat="43.27773" lon="5.77068">
        <ele>422.7</ele>
        <time>2017-10-18T07:33:38Z</time>
      </trkpt>
      <trkpt lat="43.27785" lon="5.77087">
        <ele>421.6</ele>
        <time>2017-10-18T07:33:55Z</time>
      </trkpt>
      <trkpt lat="43.27785" lon="5.77088">
        <ele>421.7</ele>
        <time>2017-10-18T07:33:56Z</time>
      </trkpt>
      <trkpt lat="43.27804" lon="5.77126">
        <ele>429.6</ele>
        <time>2017-10-18T07:34:31Z</time>
      </trkpt>
      <trkpt lat="43.27817" lon="5.77141">
        <ele>428.2</ele>
        <time>2017-10-18T07:34:48Z</time>
      </trkpt>
      <trkpt lat="43.27828" lon="5.77159">
        <ele>423.7</ele>
        <time>2017-10-18T07:35:04Z</time>
      </trkpt>
      <trkpt lat="43.27829" lon="5.7716">
        <ele>423.6</ele>
        <time>2017-10-18T07:35:05Z</time>
      </trkpt>
      <trkpt lat="43.2785" lon="5.77196">
        <ele>428.7</ele>
        <time>2017-10-18T07:35:34Z</time>
      </trkpt>
      <trkpt lat="43.27861" lon="5.77216">
        <ele>431.8</ele>
        <time>2017-10-18T07:35:49Z</time>
      </trkpt>
      <trkpt lat="43.27872" lon="5.77235">
        <ele>424.8</ele>
        <time>2017-10-18T07:36:05Z</time>
      </trkpt>
      <trkpt lat="43.27873" lon="5.77236">
        <ele>425.1</ele>
        <time>2017-10-18T07:36:06Z</time>
      </trkpt>
      <trkpt lat="43.27896" lon="5.77267">
        <ele>424.7</ele>
        <time>2017-10-18T07:36:35Z</time>
      </trkpt>
      <trkpt lat="43.2791" lon="5.77282">
        <ele>427.5</ele>
        <time>2017-10-18T07:36:52Z</time>
      </trkpt>
      <trkpt lat="43.27924" lon="5.77297">
        <ele>430.3</ele>
        <time>2017-10-18T07:37:08Z</time>
      </trkpt>
      <trkpt lat="43.27925" lon="5.77298">
        <ele>430.3</ele>
        <time>2017-10-18T07:37:09Z</time>
      </trkpt>
      <trkpt lat="43.2795" lon="5.77329">
        <ele>434.3</ele>
        <time>2017-10-18T07:37:40Z</time>
      </trkpt>
      <trkpt lat="43.27962" lon="5.77345">
        <ele>434.7</ele>
        <time>2017-10-18T07:37:55Z</time>
      </trkpt>
      <trkpt lat="43.27976" lon="5.77361">
        <ele>437.7</ele>
        <time>2017-10-18T07:38:11Z</time>
      </trkpt>
      <trkpt lat="43.27976" lon="5.77362">
        <ele>437.8</ele>
        <time>2017-10-18T07:38:12Z</time>
      </trkpt>
      <trkpt lat="43.28003" lon="5.77391">
        <ele>438.8</ele>
        <time>2017-10-18T07:38:43Z</time>
      </trkpt>
      <trkpt lat="43.28017" lon="5.77406">
        <ele>438.1</ele>
        <time>2017-10-18T07:39:00Z</time>
      </trkpt>
      <trkpt lat="43.28034" lon="5.77414">
        <ele>438</ele>
        <time>2017-10-18T07:39:21Z</time>
      </trkpt>
      <trkpt lat="43.28034" lon="5.77414">
        <ele>437.7</ele>
        <time>2017-10-18T07:39:22Z</time>
      </trkpt>
      <trkpt lat="43.28069" lon="5.77415">
        <ele>439.5</ele>
        <time>2017-10-18T07:40:09Z</time>
      </trkpt>
      <trkpt lat="43.28086" lon="5.77416">
        <ele>442.1</ele>
        <time>2017-10-18T07:40:29Z</time>
      </trkpt>
      <trkpt lat="43.28087" lon="5.77416">
        <ele>442.2</ele>
        <time>2017-10-18T07:40:30Z</time>
      </trkpt>
      <trkpt lat="43.2812" lon="5.77429">
        <ele>442.8</ele>
        <time>2017-10-18T07:41:12Z</time>
      </trkpt>
      <trkpt lat="43.28137" lon="5.77436">
        <ele>444.2</ele>
        <time>2017-10-18T07:41:35Z</time>
      </trkpt>
      <trkpt lat="43.28137" lon="5.77436">
        <ele>444.5</ele>
        <time>2017-10-18T07:41:36Z</time>
      </trkpt>
      <trkpt lat="43.28154" lon="5.77445">
        <ele>447.1</ele>
        <time>2017-10-18T07:43:40Z</time>
      </trkpt>
      <trkpt lat="43.28186" lon="5.7746">
        <ele>448.7</ele>
        <time>2017-10-18T07:44:15Z</time>
      </trkpt>
      <trkpt lat="43.28203" lon="5.77468">
        <ele>449.7</ele>
        <time>2017-10-18T07:44:32Z</time>
      </trkpt>
      <trkpt lat="43.28219" lon="5.77478">
        <ele>452</ele>
        <time>2017-10-18T07:44:49Z</time>
      </trkpt>
      <trkpt lat="43.2822" lon="5.77479">
        <ele>452</ele>
        <time>2017-10-18T07:44:50Z</time>
      </trkpt>
      <trkpt lat="43.28249" lon="5.775">
        <ele>455.3</ele>
        <time>2017-10-18T07:45:22Z</time>
      </trkpt>
      <trkpt lat="43.28265" lon="5.77509">
        <ele>455.7</ele>
        <time>2017-10-18T07:45:42Z</time>
      </trkpt>
      <trkpt lat="43.28283" lon="5.77511">
        <ele>456</ele>
        <time>2017-10-18T07:46:00Z</time>
      </trkpt>
      <trkpt lat="43.28284" lon="5.77511">
        <ele>456.1</ele>
        <time>2017-10-18T07:46:01Z</time>
      </trkpt>
      <trkpt lat="43.28318" lon="5.77514">
        <ele>461</ele>
        <time>2017-10-18T07:46:37Z</time>
      </trkpt>
      <trkpt lat="43.28335" lon="5.77519">
        <ele>463.7</ele>
        <time>2017-10-18T07:46:55Z</time>
      </trkpt>
      <trkpt lat="43.28352" lon="5.77525">
        <ele>465.1</ele>
        <time>2017-10-18T07:47:15Z</time>
      </trkpt>
      <trkpt lat="43.28353" lon="5.77525">
        <ele>465.2</ele>
        <time>2017-10-18T07:47:16Z</time>
      </trkpt>
      <trkpt lat="43.28387" lon="5.77531">
        <ele>471.1</ele>
        <time>2017-10-18T07:48:01Z</time>
      </trkpt>
      <trkpt lat="43.28405" lon="5.77529">
        <ele>471.7</ele>
        <time>2017-10-18T07:48:18Z</time>
      </trkpt>
      <trkpt lat="43.28406" lon="5.77529">
        <ele>471.7</ele>
        <time>2017-10-18T07:48:19Z</time>
      </trkpt>
      <trkpt lat="43.28437" lon="5.77545">
        <ele>476.7</ele>
        <time>2017-10-18T07:48:51Z</time>
      </trkpt>
      <trkpt lat="43.28451" lon="5.7756">
        <ele>479.6</ele>
        <time>2017-10-18T07:49:09Z</time>
      </trkpt>
      <trkpt lat="43.28465" lon="5.77574">
        <ele>480.7</ele>
        <time>2017-10-18T07:49:28Z</time>
      </trkpt>
      <trkpt lat="43.28466" lon="5.77575">
        <ele>480.8</ele>
        <time>2017-10-18T07:49:29Z</time>
      </trkpt>
      <trkpt lat="43.28499" lon="5.77573">
        <ele>482.7</ele>
        <time>2017-10-18T07:50:12Z</time>
      </trkpt>
      <trkpt lat="43.28515" lon="5.77564">
        <ele>482.3</ele>
        <time>2017-10-18T07:50:33Z</time>
      </trkpt>
      <trkpt lat="43.28516" lon="5.77564">
        <ele>482.5</ele>
        <time>2017-10-18T07:50:34Z</time>
      </trkpt>
      <trkpt lat="43.2855" lon="5.7756">
        <ele>484.8</ele>
        <time>2017-10-18T07:51:08Z</time>
      </trkpt>
      <trkpt lat="43.28567" lon="5.77561">
        <ele>488.1</ele>
        <time>2017-10-18T07:51:24Z</time>
      </trkpt>
      <trkpt lat="43.28585" lon="5.77558">
        <ele>489.5</ele>
        <time>2017-10-18T07:51:44Z</time>
      </trkpt>
      <trkpt lat="43.28586" lon="5.77558">
        <ele>489.5</ele>
        <time>2017-10-18T07:51:45Z</time>
      </trkpt>
      <trkpt lat="43.28619" lon="5.77545">
        <ele>489.3</ele>
        <time>2017-10-18T07:52:20Z</time>
      </trkpt>
      <trkpt lat="43.28635" lon="5.77538">
        <ele>491.8</ele>
        <time>2017-10-18T07:52:34Z</time>
      </trkpt>
      <trkpt lat="43.28651" lon="5.77528">
        <ele>492.7</ele>
        <time>2017-10-18T07:52:50Z</time>
      </trkpt>
      <trkpt lat="43.28651" lon="5.77527">
        <ele>492.7</ele>
        <time>2017-10-18T07:52:51Z</time>
      </trkpt>
      <trkpt lat="43.28679" lon="5.77501">
        <ele>499.2</ele>
        <time>2017-10-18T07:53:23Z</time>
      </trkpt>
      <trkpt lat="43.28693" lon="5.77486">
        <ele>501.6</ele>
        <time>2017-10-18T07:53:40Z</time>
      </trkpt>
      <trkpt lat="43.28707" lon="5.77472">
        <ele>501.6</ele>
        <time>2017-10-18T07:53:57Z</time>
      </trkpt>
      <trkpt lat="43.28708" lon="5.77471">
        <ele>501.3</ele>
        <time>2017-10-18T07:53:58Z</time>
      </trkpt>
      <trkpt lat="43.28732" lon="5.7744">
        <ele>501.7</ele>
        <time>2017-10-18T07:54:31Z</time>
      </trkpt>
      <trkpt lat="43.28734" lon="5.77416">
        <ele>501</ele>
        <time>2017-10-18T07:54:48Z</time>
      </trkpt>
      <trkpt lat="43.28738" lon="5.77393">
        <ele>502.7</ele>
        <time>2017-10-18T07:55:05Z</time>
      </trkpt>
      <trkpt lat="43.28739" lon="5.77392">
        <ele>502.7</ele>
        <time>2017-10-18T07:55:06Z</time>
      </trkpt>
      <trkpt lat="43.28758" lon="5.77355">
        <ele>504.6</ele>
        <time>2017-10-18T07:55:36Z</time>
      </trkpt>
      <trkpt lat="43.28773" lon="5.77343">
        <ele>506.7</ele>
        <time>2017-10-18T07:55:50Z</time>
      </trkpt>
      <trkpt lat="43.28788" lon="5.77332">
        <ele>507.5</ele>
        <time>2017-10-18T07:56:04Z</time>
      </trkpt>
      <trkpt lat="43.28804" lon="5.77324">
        <ele>508.3</ele>
        <time>2017-10-18T07:56:18Z</time>
      </trkpt>
      <trkpt lat="43.28805" lon="5.77323">
        <ele>508.2</ele>
        <time>2017-10-18T07:56:19Z</time>
      </trkpt>
      <trkpt lat="43.28834" lon="5.77299">
        <ele>510.3</ele>
        <time>2017-10-18T07:57:02Z</time>
      </trkpt>
      <trkpt lat="43.28826" lon="5.77278">
        <ele>508.5</ele>
        <time>2017-10-18T08:09:51Z</time>
      </trkpt>
      <trkpt lat="43.28826" lon="5.77277">
        <ele>508.2</ele>
        <time>2017-10-18T08:09:52Z</time>
      </trkpt>
      <trkpt lat="43.28827" lon="5.7723">
        <ele>507.6</ele>
        <time>2017-10-18T08:10:23Z</time>
      </trkpt>
      <trkpt lat="43.28833" lon="5.77207">
        <ele>507.2</ele>
        <time>2017-10-18T08:10:39Z</time>
      </trkpt>
      <trkpt lat="43.28838" lon="5.77185">
        <ele>506.7</ele>
        <time>2017-10-18T08:11:01Z</time>
      </trkpt>
      <trkpt lat="43.28839" lon="5.77184">
        <ele>506.7</ele>
        <time>2017-10-18T08:11:02Z</time>
      </trkpt>
      <trkpt lat="43.28854" lon="5.77142">
        <ele>506</ele>
        <time>2017-10-18T08:11:35Z</time>
      </trkpt>
      <trkpt lat="43.28859" lon="5.7712">
        <ele>505.5</ele>
        <time>2017-10-18T08:11:51Z</time>
      </trkpt>
      <trkpt lat="43.28861" lon="5.77096">
        <ele>500.5</ele>
        <time>2017-10-18T08:12:10Z</time>
      </trkpt>
      <trkpt lat="43.2886" lon="5.77095">
        <ele>500.1</ele>
        <time>2017-10-18T08:12:11Z</time>
      </trkpt>
      <trkpt lat="43.2885" lon="5.7705">
        <ele>497</ele>
        <time>2017-10-18T08:12:43Z</time>
      </trkpt>
      <trkpt lat="43.28844" lon="5.77028">
        <ele>499.2</ele>
        <time>2017-10-18T08:12:56Z</time>
      </trkpt>
      <trkpt lat="43.28834" lon="5.77009">
        <ele>500.1</ele>
        <time>2017-10-18T08:13:10Z</time>
      </trkpt>
      <trkpt lat="43.28824" lon="5.76989">
        <ele>500.2</ele>
        <time>2017-10-18T08:13:32Z</time>
      </trkpt>
      <trkpt lat="43.28824" lon="5.76988">
        <ele>500.7</ele>
        <time>2017-10-18T08:13:33Z</time>
      </trkpt>
      <trkpt lat="43.28826" lon="5.76942">
        <ele>498.7</ele>
        <time>2017-10-18T08:16:25Z</time>
      </trkpt>
      <trkpt lat="43.28826" lon="5.76941">
        <ele>498.8</ele>
        <time>2017-10-18T08:16:26Z</time>
      </trkpt>
      <trkpt lat="43.2881" lon="5.76899">
        <ele>502.2</ele>
        <time>2017-10-18T08:17:10Z</time>
      </trkpt>
      <trkpt lat="43.288" lon="5.76878">
        <ele>502.8</ele>
        <time>2017-10-18T08:17:42Z</time>
      </trkpt>
      <trkpt lat="43.288" lon="5.76876">
        <ele>503.1</ele>
        <time>2017-10-18T08:17:43Z</time>
      </trkpt>
      <trkpt lat="43.28784" lon="5.76835">
        <ele>499.3</ele>
        <time>2017-10-18T08:18:51Z</time>
      </trkpt>
      <trkpt lat="43.28783" lon="5.76834">
        <ele>499.1</ele>
        <time>2017-10-18T08:18:52Z</time>
      </trkpt>
      <trkpt lat="43.28769" lon="5.76791">
        <ele>494.1</ele>
        <time>2017-10-18T08:19:29Z</time>
      </trkpt>
      <trkpt lat="43.28769" lon="5.76767">
        <ele>496.5</ele>
        <time>2017-10-18T08:19:54Z</time>
      </trkpt>
      <trkpt lat="43.28769" lon="5.76766">
        <ele>496.1</ele>
        <time>2017-10-18T08:19:55Z</time>
      </trkpt>
      <trkpt lat="43.28771" lon="5.7672">
        <ele>495.3</ele>
        <time>2017-10-18T08:20:36Z</time>
      </trkpt>
      <trkpt lat="43.28765" lon="5.76697">
        <ele>498.6</ele>
        <time>2017-10-18T08:20:54Z</time>
      </trkpt>
      <trkpt lat="43.2876" lon="5.76675">
        <ele>506.8</ele>
        <time>2017-10-18T08:21:19Z</time>
      </trkpt>
      <trkpt lat="43.28759" lon="5.76674">
        <ele>507</ele>
        <time>2017-10-18T08:21:20Z</time>
      </trkpt>
      <trkpt lat="43.28741" lon="5.76635">
        <ele>506.5</ele>
        <time>2017-10-18T08:22:02Z</time>
      </trkpt>
      <trkpt lat="43.28732" lon="5.76615">
        <ele>508.2</ele>
        <time>2017-10-18T08:22:19Z</time>
      </trkpt>
      <trkpt lat="43.28724" lon="5.76593">
        <ele>505.7</ele>
        <time>2017-10-18T08:22:40Z</time>
      </trkpt>
      <trkpt lat="43.28724" lon="5.76592">
        <ele>506</ele>
        <time>2017-10-18T08:22:41Z</time>
      </trkpt>
      <trkpt lat="43.28705" lon="5.76553">
        <ele>499.5</ele>
        <time>2017-10-18T08:23:47Z</time>
      </trkpt>
      <trkpt lat="43.28704" lon="5.76553">
        <ele>499.5</ele>
        <time>2017-10-18T08:23:48Z</time>
      </trkpt>
      <trkpt lat="43.28695" lon="5.76508">
        <ele>502.7</ele>
        <time>2017-10-18T08:24:40Z</time>
      </trkpt>
      <trkpt lat="43.28684" lon="5.76489">
        <ele>503.7</ele>
        <time>2017-10-18T08:25:02Z</time>
      </trkpt>
      <trkpt lat="43.28684" lon="5.76488">
        <ele>504.2</ele>
        <time>2017-10-18T08:25:03Z</time>
      </trkpt>
      <trkpt lat="43.28663" lon="5.7645">
        <ele>504.5</ele>
        <time>2017-10-18T08:25:53Z</time>
      </trkpt>
      <trkpt lat="43.28656" lon="5.76428">
        <ele>509.1</ele>
        <time>2017-10-18T08:26:19Z</time>
      </trkpt>
      <trkpt lat="43.28656" lon="5.76427">
        <ele>508.6</ele>
        <time>2017-10-18T08:26:20Z</time>
      </trkpt>
      <trkpt lat="43.28642" lon="5.76385">
        <ele>507.2</ele>
        <time>2017-10-18T08:27:07Z</time>
      </trkpt>
      <trkpt lat="43.28629" lon="5.7637">
        <ele>508.2</ele>
        <time>2017-10-18T08:27:31Z</time>
      </trkpt>
      <trkpt lat="43.28628" lon="5.76368">
        <ele>508.7</ele>
        <time>2017-10-18T08:27:32Z</time>
      </trkpt>
      <trkpt lat="43.28604" lon="5.76335">
        <ele>518.5</ele>
        <time>2017-10-18T08:28:03Z</time>
      </trkpt>
      <trkpt lat="43.28596" lon="5.76314">
        <ele>517</ele>
        <time>2017-10-18T08:28:23Z</time>
      </trkpt>
      <trkpt lat="43.286" lon="5.7629">
        <ele>521</ele>
        <time>2017-10-18T08:28:53Z</time>
      </trkpt>
      <trkpt lat="43.286" lon="5.7629">
        <ele>520.9</ele>
        <time>2017-10-18T08:28:54Z</time>
      </trkpt>
      <trkpt lat="43.28631" lon="5.76278">
        <ele>522.2</ele>
        <time>2017-10-18T08:30:20Z</time>
      </trkpt>
      <trkpt lat="43.28632" lon="5.76278">
        <ele>521.9</ele>
        <time>2017-10-18T08:30:21Z</time>
      </trkpt>
      <trkpt lat="43.28598" lon="5.7629">
        <ele>520.9</ele>
        <time>2017-10-18T08:31:25Z</time>
      </trkpt>
      <trkpt lat="43.28597" lon="5.76291">
        <ele>521.2</ele>
        <time>2017-10-18T08:31:26Z</time>
      </trkpt>
      <trkpt lat="43.28569" lon="5.76274">
        <ele>523</ele>
        <time>2017-10-18T08:32:10Z</time>
      </trkpt>
      <trkpt lat="43.28564" lon="5.7625">
        <ele>523.2</ele>
        <time>2017-10-18T08:32:29Z</time>
      </trkpt>
      <trkpt lat="43.28564" lon="5.76249">
        <ele>523.2</ele>
        <time>2017-10-18T08:32:30Z</time>
      </trkpt>
      <trkpt lat="43.28546" lon="5.76209">
        <ele>493.6</ele>
        <time>2017-10-18T08:33:33Z</time>
      </trkpt>
      <trkpt lat="43.28545" lon="5.76208">
        <ele>493.2</ele>
        <time>2017-10-18T08:33:34Z</time>
      </trkpt>
      <trkpt lat="43.28534" lon="5.76164">
        <ele>470.2</ele>
        <time>2017-10-18T08:34:25Z</time>
      </trkpt>
      <trkpt lat="43.28524" lon="5.76143">
        <ele>462.2</ele>
        <time>2017-10-18T08:34:50Z</time>
      </trkpt>
      <trkpt lat="43.28524" lon="5.76142">
        <ele>462.1</ele>
        <time>2017-10-18T08:34:51Z</time>
      </trkpt>
      <trkpt lat="43.28498" lon="5.7611">
        <ele>460.7</ele>
        <time>2017-10-18T08:35:32Z</time>
      </trkpt>
      <trkpt lat="43.28486" lon="5.76093">
        <ele>466.2</ele>
        <time>2017-10-18T08:35:46Z</time>
      </trkpt>
      <trkpt lat="43.28473" lon="5.76076">
        <ele>471.3</ele>
        <time>2017-10-18T08:35:59Z</time>
      </trkpt>
      <trkpt lat="43.28473" lon="5.76075">
        <ele>471.2</ele>
        <time>2017-10-18T08:36:00Z</time>
      </trkpt>
      <trkpt lat="43.28452" lon="5.76037">
        <ele>477.7</ele>
        <time>2017-10-18T08:36:30Z</time>
      </trkpt>
      <trkpt lat="43.28468" lon="5.76025">
        <ele>485.2</ele>
        <time>2017-10-18T08:37:00Z</time>
      </trkpt>
      <trkpt lat="43.28468" lon="5.76025">
        <ele>485.2</ele>
        <time>2017-10-18T08:37:01Z</time>
      </trkpt>
      <trkpt lat="43.28501" lon="5.76035">
        <ele>480.8</ele>
        <time>2017-10-18T08:37:42Z</time>
      </trkpt>
      <trkpt lat="43.28518" lon="5.76042">
        <ele>477.7</ele>
        <time>2017-10-18T08:38:01Z</time>
      </trkpt>
      <trkpt lat="43.28519" lon="5.76042">
        <ele>477.3</ele>
        <time>2017-10-18T08:38:02Z</time>
      </trkpt>
      <trkpt lat="43.28551" lon="5.76052">
        <ele>475.3</ele>
        <time>2017-10-18T08:38:32Z</time>
      </trkpt>
      <trkpt lat="43.28568" lon="5.76051">
        <ele>473.7</ele>
        <time>2017-10-18T08:38:58Z</time>
      </trkpt>
      <trkpt lat="43.28579" lon="5.76031">
        <ele>473</ele>
        <time>2017-10-18T08:39:20Z</time>
      </trkpt>
      <trkpt lat="43.2858" lon="5.76031">
        <ele>472.5</ele>
        <time>2017-10-18T08:39:21Z</time>
      </trkpt>
      <trkpt lat="43.28601" lon="5.75993">
        <ele>464.3</ele>
        <time>2017-10-18T08:40:11Z</time>
      </trkpt>
      <trkpt lat="43.28611" lon="5.75973">
        <ele>459.2</ele>
        <time>2017-10-18T08:40:36Z</time>
      </trkpt>
      <trkpt lat="43.28611" lon="5.75973">
        <ele>459</ele>
        <time>2017-10-18T08:40:37Z</time>
      </trkpt>
      <trkpt lat="43.28592" lon="5.75934">
        <ele>463.7</ele>
        <time>2017-10-18T08:41:12Z</time>
      </trkpt>
      <trkpt lat="43.28598" lon="5.75911">
        <ele>456.7</ele>
        <time>2017-10-18T08:41:48Z</time>
      </trkpt>
      <trkpt lat="43.28599" lon="5.7591">
        <ele>456.5</ele>
        <time>2017-10-18T08:41:49Z</time>
      </trkpt>
      <trkpt lat="43.2862" lon="5.75874">
        <ele>449.1</ele>
        <time>2017-10-18T08:42:36Z</time>
      </trkpt>
      <trkpt lat="43.2863" lon="5.75855">
        <ele>445.8</ele>
        <time>2017-10-18T08:42:55Z</time>
      </trkpt>
      <trkpt lat="43.28631" lon="5.75854">
        <ele>445.7</ele>
        <time>2017-10-18T08:42:56Z</time>
      </trkpt>
      <trkpt lat="43.28624" lon="5.75823">
        <ele>451.7</ele>
        <time>2017-10-18T08:49:20Z</time>
      </trkpt>
      <trkpt lat="43.28623" lon="5.75823">
        <ele>451.6</ele>
        <time>2017-10-18T08:49:21Z</time>
      </trkpt>
      <trkpt lat="43.28594" lon="5.75848">
        <ele>458.1</ele>
        <time>2017-10-18T08:50:05Z</time>
      </trkpt>
      <trkpt lat="43.28576" lon="5.75852">
        <ele>458.2</ele>
        <time>2017-10-18T08:50:28Z</time>
      </trkpt>
      <trkpt lat="43.28575" lon="5.75853">
        <ele>457.5</ele>
        <time>2017-10-18T08:50:29Z</time>
      </trkpt>
      <trkpt lat="43.28549" lon="5.75881">
        <ele>449.3</ele>
        <time>2017-10-18T08:51:13Z</time>
      </trkpt>
      <trkpt lat="43.28548" lon="5.75857">
        <ele>449.3</ele>
        <time>2017-10-18T08:51:41Z</time>
      </trkpt>
      <trkpt lat="43.28548" lon="5.75856">
        <ele>449.2</ele>
        <time>2017-10-18T08:51:42Z</time>
      </trkpt>
      <trkpt lat="43.28558" lon="5.75812">
        <ele>448.5</ele>
        <time>2017-10-18T08:52:22Z</time>
      </trkpt>
      <trkpt lat="43.28558" lon="5.75787">
        <ele>450.8</ele>
        <time>2017-10-18T08:52:41Z</time>
      </trkpt>
      <trkpt lat="43.28556" lon="5.75764">
        <ele>448.7</ele>
        <time>2017-10-18T08:52:59Z</time>
      </trkpt>
      <trkpt lat="43.28555" lon="5.75762">
        <ele>448.8</ele>
        <time>2017-10-18T08:53:00Z</time>
      </trkpt>
      <trkpt lat="43.28543" lon="5.75721">
        <ele>458.5</ele>
        <time>2017-10-18T08:53:28Z</time>
      </trkpt>
      <trkpt lat="43.28539" lon="5.75698">
        <ele>451.2</ele>
        <time>2017-10-18T08:53:51Z</time>
      </trkpt>
      <trkpt lat="43.28532" lon="5.75676">
        <ele>440</ele>
        <time>2017-10-18T08:54:14Z</time>
      </trkpt>
      <trkpt lat="43.28531" lon="5.75675">
        <ele>439.7</ele>
        <time>2017-10-18T08:54:15Z</time>
      </trkpt>
      <trkpt lat="43.28534" lon="5.75628">
        <ele>443.2</ele>
        <time>2017-10-18T08:54:47Z</time>
      </trkpt>
      <trkpt lat="43.28533" lon="5.75603">
        <ele>461.2</ele>
        <time>2017-10-18T08:55:01Z</time>
      </trkpt>
      <trkpt lat="43.28532" lon="5.7558">
        <ele>471.1</ele>
        <time>2017-10-18T08:55:18Z</time>
      </trkpt>
      <trkpt lat="43.28532" lon="5.75579">
        <ele>472.1</ele>
        <time>2017-10-18T08:55:19Z</time>
      </trkpt>
      <trkpt lat="43.28538" lon="5.75534">
        <ele>460.2</ele>
        <time>2017-10-18T08:55:54Z</time>
      </trkpt>
      <trkpt lat="43.28546" lon="5.75511">
        <ele>470.3</ele>
        <time>2017-10-18T08:56:16Z</time>
      </trkpt>
      <trkpt lat="43.28554" lon="5.75492">
        <ele>469.1</ele>
        <time>2017-10-18T08:56:32Z</time>
      </trkpt>
      <trkpt lat="43.28556" lon="5.75491">
        <ele>468.7</ele>
        <time>2017-10-18T08:56:33Z</time>
      </trkpt>
      <trkpt lat="43.28582" lon="5.75462">
        <ele>472</ele>
        <time>2017-10-18T08:57:12Z</time>
      </trkpt>
      <trkpt lat="43.28598" lon="5.75451">
        <ele>478.7</ele>
        <time>2017-10-18T09:01:55Z</time>
      </trkpt>
      <trkpt lat="43.28599" lon="5.7545">
        <ele>478.7</ele>
        <time>2017-10-18T09:01:56Z</time>
      </trkpt>
      <trkpt lat="43.2862" lon="5.75415">
        <ele>475.2</ele>
        <time>2017-10-18T09:02:33Z</time>
      </trkpt>
      <trkpt lat="43.28626" lon="5.75393">
        <ele>475.7</ele>
        <time>2017-10-18T09:02:52Z</time>
      </trkpt>
      <trkpt lat="43.28634" lon="5.7537">
        <ele>474.7</ele>
        <time>2017-10-18T09:03:11Z</time>
      </trkpt>
      <trkpt lat="43.28634" lon="5.75369">
        <ele>474.6</ele>
        <time>2017-10-18T09:03:12Z</time>
      </trkpt>
      <trkpt lat="43.28636" lon="5.75323">
        <ele>469.6</ele>
        <time>2017-10-18T09:03:57Z</time>
      </trkpt>
      <trkpt lat="43.2863" lon="5.753">
        <ele>472.2</ele>
        <time>2017-10-18T09:04:15Z</time>
      </trkpt>
      <trkpt lat="43.2863" lon="5.75299">
        <ele>472.5</ele>
        <time>2017-10-18T09:04:16Z</time>
      </trkpt>
      <trkpt lat="43.28626" lon="5.75252">
        <ele>478.5</ele>
        <time>2017-10-18T09:04:52Z</time>
      </trkpt>
      <trkpt lat="43.2863" lon="5.75229">
        <ele>484.5</ele>
        <time>2017-10-18T09:05:07Z</time>
      </trkpt>
      <trkpt lat="43.28639" lon="5.75209">
        <ele>485.5</ele>
        <time>2017-10-18T09:05:25Z</time>
      </trkpt>
      <trkpt lat="43.2864" lon="5.75208">
        <ele>485.3</ele>
        <time>2017-10-18T09:05:26Z</time>
      </trkpt>
      <trkpt lat="43.28659" lon="5.75169">
        <ele>485.2</ele>
        <time>2017-10-18T09:06:03Z</time>
      </trkpt>
      <trkpt lat="43.28656" lon="5.75146">
        <ele>480.7</ele>
        <time>2017-10-18T09:06:21Z</time>
      </trkpt>
      <trkpt lat="43.28645" lon="5.75127">
        <ele>477.1</ele>
        <time>2017-10-18T09:06:42Z</time>
      </trkpt>
      <trkpt lat="43.28644" lon="5.75127">
        <ele>477.2</ele>
        <time>2017-10-18T09:06:43Z</time>
      </trkpt>
      <trkpt lat="43.28613" lon="5.75108">
        <ele>488.2</ele>
        <time>2017-10-18T09:07:28Z</time>
      </trkpt>
      <trkpt lat="43.28596" lon="5.75099">
        <ele>490.2</ele>
        <time>2017-10-18T09:07:50Z</time>
      </trkpt>
      <trkpt lat="43.28595" lon="5.75099">
        <ele>490.2</ele>
        <time>2017-10-18T09:07:51Z</time>
      </trkpt>
      <trkpt lat="43.28561" lon="5.75091">
        <ele>489.8</ele>
        <time>2017-10-18T09:08:28Z</time>
      </trkpt>
      <trkpt lat="43.28545" lon="5.75084">
        <ele>492.2</ele>
        <time>2017-10-18T09:08:44Z</time>
      </trkpt>
      <trkpt lat="43.28529" lon="5.75075">
        <ele>493</ele>
        <time>2017-10-18T09:08:59Z</time>
      </trkpt>
      <trkpt lat="43.28528" lon="5.75074">
        <ele>493</ele>
        <time>2017-10-18T09:09:00Z</time>
      </trkpt>
      <trkpt lat="43.28495" lon="5.75065">
        <ele>496.7</ele>
        <time>2017-10-18T09:09:35Z</time>
      </trkpt>
      <trkpt lat="43.28478" lon="5.7506">
        <ele>496.7</ele>
        <time>2017-10-18T09:09:52Z</time>
      </trkpt>
      <trkpt lat="43.28463" lon="5.75051">
        <ele>496.8</ele>
        <time>2017-10-18T09:10:09Z</time>
      </trkpt>
      <trkpt lat="43.28462" lon="5.7505">
        <ele>497.2</ele>
        <time>2017-10-18T09:10:10Z</time>
      </trkpt>
      <trkpt lat="43.2843" lon="5.75034">
        <ele>498.5</ele>
        <time>2017-10-18T09:10:45Z</time>
      </trkpt>
      <trkpt lat="43.28413" lon="5.75027">
        <ele>498.8</ele>
        <time>2017-10-18T09:11:04Z</time>
      </trkpt>
      <trkpt lat="43.28395" lon="5.75022">
        <ele>496.7</ele>
        <time>2017-10-18T09:11:24Z</time>
      </trkpt>
      <trkpt lat="43.28394" lon="5.75022">
        <ele>496.2</ele>
        <time>2017-10-18T09:11:25Z</time>
      </trkpt>
      <trkpt lat="43.28382" lon="5.75006">
        <ele>500.8</ele>
        <time>2017-10-18T09:14:59Z</time>
      </trkpt>
      <trkpt lat="43.28392" lon="5.74972">
        <ele>500.2</ele>
        <time>2017-10-18T09:15:58Z</time>
      </trkpt>
      <trkpt lat="43.28409" lon="5.74963">
        <ele>500.2</ele>
        <time>2017-10-18T09:16:17Z</time>
      </trkpt>
      <trkpt lat="43.2841" lon="5.74962">
        <ele>500.5</ele>
        <time>2017-10-18T09:16:18Z</time>
      </trkpt>
      <trkpt lat="43.28438" lon="5.74937">
        <ele>503.6</ele>
        <time>2017-10-18T09:17:00Z</time>
      </trkpt>
      <trkpt lat="43.28453" lon="5.74923">
        <ele>502.2</ele>
        <time>2017-10-18T09:17:20Z</time>
      </trkpt>
      <trkpt lat="43.28454" lon="5.74922">
        <ele>502.2</ele>
        <time>2017-10-18T09:17:21Z</time>
      </trkpt>
      <trkpt lat="43.28484" lon="5.74898">
        <ele>509</ele>
        <time>2017-10-18T09:17:57Z</time>
      </trkpt>
      <trkpt lat="43.28501" lon="5.74899">
        <ele>509.2</ele>
        <time>2017-10-18T09:18:23Z</time>
      </trkpt>
      <trkpt lat="43.28502" lon="5.74899">
        <ele>509.2</ele>
        <time>2017-10-18T09:18:24Z</time>
      </trkpt>
      <trkpt lat="43.28535" lon="5.7489">
        <ele>513</ele>
        <time>2017-10-18T09:18:59Z</time>
      </trkpt>
      <trkpt lat="43.28552" lon="5.74886">
        <ele>514</ele>
        <time>2017-10-18T09:19:16Z</time>
      </trkpt>
      <trkpt lat="43.28569" lon="5.74877">
        <ele>510.5</ele>
        <time>2017-10-18T09:19:40Z</time>
      </trkpt>
      <trkpt lat="43.28569" lon="5.74877">
        <ele>510.3</ele>
        <time>2017-10-18T09:19:41Z</time>
      </trkpt>
      <trkpt lat="43.28601" lon="5.74858">
        <ele>509</ele>
        <time>2017-10-18T09:20:08Z</time>
      </trkpt>
      <trkpt lat="43.28616" lon="5.74845">
        <ele>510.5</ele>
        <time>2017-10-18T09:20:24Z</time>
      </trkpt>
      <trkpt lat="43.2863" lon="5.7483">
        <ele>511.7</ele>
        <time>2017-10-18T09:20:39Z</time>
      </trkpt>
      <trkpt lat="43.28645" lon="5.74818">
        <ele>513.2</ele>
        <time>2017-10-18T09:20:54Z</time>
      </trkpt>
      <trkpt lat="43.28646" lon="5.74817">
        <ele>513.2</ele>
        <time>2017-10-18T09:20:55Z</time>
      </trkpt>
      <trkpt lat="43.28673" lon="5.7479">
        <ele>511.8</ele>
        <time>2017-10-18T09:21:28Z</time>
      </trkpt>
      <trkpt lat="43.28691" lon="5.74782">
        <ele>513.9</ele>
        <time>2017-10-18T09:22:17Z</time>
      </trkpt>
      <trkpt lat="43.28691" lon="5.74782">
        <ele>513.7</ele>
        <time>2017-10-18T09:22:18Z</time>
      </trkpt>
      <trkpt lat="43.28682" lon="5.7476">
        <ele>517.2</ele>
        <time>2017-10-18T09:31:59Z</time>
      </trkpt>
      <trkpt lat="43.28648" lon="5.74756">
        <ele>519.4</ele>
        <time>2017-10-18T09:32:42Z</time>
      </trkpt>
      <trkpt lat="43.28631" lon="5.74751">
        <ele>516.7</ele>
        <time>2017-10-18T09:33:00Z</time>
      </trkpt>
      <trkpt lat="43.2863" lon="5.74751">
        <ele>516.5</ele>
        <time>2017-10-18T09:33:01Z</time>
      </trkpt>
      <trkpt lat="43.28598" lon="5.74745">
        <ele>513.7</ele>
        <time>2017-10-18T09:33:32Z</time>
      </trkpt>
      <trkpt lat="43.28581" lon="5.74739">
        <ele>512.7</ele>
        <time>2017-10-18T09:33:47Z</time>
      </trkpt>
      <trkpt lat="43.28564" lon="5.74743">
        <ele>511.1</ele>
        <time>2017-10-18T09:34:02Z</time>
      </trkpt>
      <trkpt lat="43.28562" lon="5.74743">
        <ele>511</ele>
        <time>2017-10-18T09:34:03Z</time>
      </trkpt>
      <trkpt lat="43.2853" lon="5.74758">
        <ele>506.5</ele>
        <time>2017-10-18T09:34:34Z</time>
      </trkpt>
      <trkpt lat="43.28513" lon="5.74765">
        <ele>505.1</ele>
        <time>2017-10-18T09:34:51Z</time>
      </trkpt>
      <trkpt lat="43.28497" lon="5.74773">
        <ele>503</ele>
        <time>2017-10-18T09:35:06Z</time>
      </trkpt>
      <trkpt lat="43.28496" lon="5.74773">
        <ele>502.7</ele>
        <time>2017-10-18T09:35:07Z</time>
      </trkpt>
      <trkpt lat="43.28464" lon="5.74767">
        <ele>503.2</ele>
        <time>2017-10-18T09:35:37Z</time>
      </trkpt>
      <trkpt lat="43.28448" lon="5.74757">
        <ele>502.1</ele>
        <time>2017-10-18T09:35:53Z</time>
      </trkpt>
      <trkpt lat="43.28432" lon="5.74766">
        <ele>500.5</ele>
        <time>2017-10-18T09:36:09Z</time>
      </trkpt>
      <trkpt lat="43.28431" lon="5.74767">
        <ele>500.5</ele>
        <time>2017-10-18T09:36:10Z</time>
      </trkpt>
      <trkpt lat="43.28413" lon="5.74807">
        <ele>496.2</ele>
        <time>2017-10-18T09:36:42Z</time>
      </trkpt>
      <trkpt lat="43.28405" lon="5.74828">
        <ele>492.6</ele>
        <time>2017-10-18T09:36:57Z</time>
      </trkpt>
      <trkpt lat="43.28395" lon="5.74849">
        <ele>493</ele>
        <time>2017-10-18T09:37:15Z</time>
      </trkpt>
      <trkpt lat="43.28394" lon="5.7485">
        <ele>492.2</ele>
        <time>2017-10-18T09:37:16Z</time>
      </trkpt>
      <trkpt lat="43.28371" lon="5.74883">
        <ele>481.5</ele>
        <time>2017-10-18T09:37:48Z</time>
      </trkpt>
      <trkpt lat="43.28359" lon="5.749">
        <ele>479.7</ele>
        <time>2017-10-18T09:38:03Z</time>
      </trkpt>
      <trkpt lat="43.28345" lon="5.74915">
        <ele>477.7</ele>
        <time>2017-10-18T09:38:19Z</time>
      </trkpt>
      <trkpt lat="43.28345" lon="5.74916">
        <ele>477.5</ele>
        <time>2017-10-18T09:38:20Z</time>
      </trkpt>
      <trkpt lat="43.28314" lon="5.74937">
        <ele>479.2</ele>
        <time>2017-10-18T09:38:51Z</time>
      </trkpt>
      <trkpt lat="43.283" lon="5.74924">
        <ele>480.1</ele>
        <time>2017-10-18T09:39:10Z</time>
      </trkpt>
      <trkpt lat="43.28285" lon="5.7491">
        <ele>477</ele>
        <time>2017-10-18T09:39:54Z</time>
      </trkpt>
      <trkpt lat="43.28285" lon="5.74909">
        <ele>476.7</ele>
        <time>2017-10-18T09:39:55Z</time>
      </trkpt>
      <trkpt lat="43.28264" lon="5.74871">
        <ele>473.7</ele>
        <time>2017-10-18T09:41:10Z</time>
      </trkpt>
      <trkpt lat="43.28263" lon="5.7487">
        <ele>474.1</ele>
        <time>2017-10-18T09:41:11Z</time>
      </trkpt>
      <trkpt lat="43.28235" lon="5.74844">
        <ele>459.8</ele>
        <time>2017-10-18T09:42:27Z</time>
      </trkpt>
      <trkpt lat="43.28234" lon="5.74843">
        <ele>459.7</ele>
        <time>2017-10-18T09:42:28Z</time>
      </trkpt>
      <trkpt lat="43.28211" lon="5.74809">
        <ele>453.7</ele>
        <time>2017-10-18T09:43:14Z</time>
      </trkpt>
      <trkpt lat="43.28195" lon="5.74799">
        <ele>450.7</ele>
        <time>2017-10-18T09:43:46Z</time>
      </trkpt>
      <trkpt lat="43.28194" lon="5.74799">
        <ele>450.7</ele>
        <time>2017-10-18T09:43:47Z</time>
      </trkpt>
      <trkpt lat="43.28161" lon="5.74783">
        <ele>443.2</ele>
        <time>2017-10-18T09:44:45Z</time>
      </trkpt>
      <trkpt lat="43.28144" lon="5.74779">
        <ele>439</ele>
        <time>2017-10-18T09:45:12Z</time>
      </trkpt>
      <trkpt lat="43.28143" lon="5.74779">
        <ele>438.7</ele>
        <time>2017-10-18T09:45:13Z</time>
      </trkpt>
      <trkpt lat="43.2811" lon="5.74769">
        <ele>437</ele>
        <time>2017-10-18T09:45:55Z</time>
      </trkpt>
      <trkpt lat="43.28093" lon="5.74778">
        <ele>434.2</ele>
        <time>2017-10-18T09:46:41Z</time>
      </trkpt>
      <trkpt lat="43.28093" lon="5.74778">
        <ele>434.1</ele>
        <time>2017-10-18T09:46:42Z</time>
      </trkpt>
      <trkpt lat="43.28078" lon="5.74821">
        <ele>422.7</ele>
        <time>2017-10-18T09:47:59Z</time>
      </trkpt>
      <trkpt lat="43.28077" lon="5.74821">
        <ele>422.5</ele>
        <time>2017-10-18T09:48:00Z</time>
      </trkpt>
      <trkpt lat="43.28052" lon="5.74789">
        <ele>415.2</ele>
        <time>2017-10-18T09:48:41Z</time>
      </trkpt>
      <trkpt lat="43.28036" lon="5.74777">
        <ele>413.5</ele>
        <time>2017-10-18T09:49:08Z</time>
      </trkpt>
      <trkpt lat="43.28036" lon="5.74777">
        <ele>413</ele>
        <time>2017-10-18T09:49:09Z</time>
      </trkpt>
      <trkpt lat="43.28011" lon="5.74745">
        <ele>408.8</ele>
        <time>2017-10-18T09:52:40Z</time>
      </trkpt>
      <trkpt lat="43.28011" lon="5.74744">
        <ele>409.2</ele>
        <time>2017-10-18T09:52:41Z</time>
      </trkpt>
      <trkpt lat="43.28003" lon="5.74701">
        <ele>395.3</ele>
        <time>2017-10-18T09:53:26Z</time>
      </trkpt>
      <trkpt lat="43.28003" lon="5.74676">
        <ele>397.8</ele>
        <time>2017-10-18T09:53:44Z</time>
      </trkpt>
      <trkpt lat="43.28003" lon="5.74675">
        <ele>398.5</ele>
        <time>2017-10-18T09:53:45Z</time>
      </trkpt>
      <trkpt lat="43.28004" lon="5.74627">
        <ele>389.7</ele>
        <time>2017-10-18T09:54:27Z</time>
      </trkpt>
      <trkpt lat="43.28006" lon="5.74604">
        <ele>387.6</ele>
        <time>2017-10-18T09:54:46Z</time>
      </trkpt>
      <trkpt lat="43.28005" lon="5.74603">
        <ele>387.6</ele>
        <time>2017-10-18T09:54:47Z</time>
      </trkpt>
      <trkpt lat="43.27997" lon="5.74558">
        <ele>385.1</ele>
        <time>2017-10-18T09:55:30Z</time>
      </trkpt>
      <trkpt lat="43.2799" lon="5.74535">
        <ele>381.7</ele>
        <time>2017-10-18T09:55:52Z</time>
      </trkpt>
      <trkpt lat="43.2799" lon="5.74534">
        <ele>381.6</ele>
        <time>2017-10-18T09:55:53Z</time>
      </trkpt>
      <trkpt lat="43.27985" lon="5.74506">
        <ele>381.2</ele>
        <time>2017-10-18T09:58:22Z</time>
      </trkpt>
      <trkpt lat="43.27985" lon="5.74506">
        <ele>381.1</ele>
        <time>2017-10-18T09:58:23Z</time>
      </trkpt>
      <trkpt lat="43.27983" lon="5.74457">
        <ele>373.6</ele>
        <time>2017-10-18T09:59:46Z</time>
      </trkpt>
      <trkpt lat="43.27982" lon="5.74456">
        <ele>373.3</ele>
        <time>2017-10-18T09:59:47Z</time>
      </trkpt>
      <trkpt lat="43.27987" lon="5.74482">
        <ele>368.7</ele>
        <time>2017-10-18T10:02:49Z</time>
      </trkpt>
      <trkpt lat="43.27965" lon="5.74496">
        <ele>370.2</ele>
        <time>2017-10-18T10:03:44Z</time>
      </trkpt>
      <trkpt lat="43.27948" lon="5.74497">
        <ele>378.3</ele>
        <time>2017-10-18T10:05:24Z</time>
      </trkpt>
      <trkpt lat="43.27947" lon="5.74497">
        <ele>378.1</ele>
        <time>2017-10-18T10:05:25Z</time>
      </trkpt>
      <trkpt lat="43.27931" lon="5.74508">
        <ele>371.7</ele>
        <time>2017-10-18T10:07:18Z</time>
      </trkpt>
      <trkpt lat="43.27919" lon="5.74553">
        <ele>374.3</ele>
        <time>2017-10-18T10:07:59Z</time>
      </trkpt>
      <trkpt lat="43.2791" lon="5.74573">
        <ele>377</ele>
        <time>2017-10-18T10:08:15Z</time>
      </trkpt>
      <trkpt lat="43.27898" lon="5.7459">
        <ele>382</ele>
        <time>2017-10-18T10:08:30Z</time>
      </trkpt>
      <trkpt lat="43.27897" lon="5.7459">
        <ele>382.2</ele>
        <time>2017-10-18T10:08:31Z</time>
      </trkpt>
      <trkpt lat="43.27872" lon="5.74622">
        <ele>378.2</ele>
        <time>2017-10-18T10:09:04Z</time>
      </trkpt>
      <trkpt lat="43.27856" lon="5.74633">
        <ele>379.7</ele>
        <time>2017-10-18T10:09:21Z</time>
      </trkpt>
      <trkpt lat="43.27838" lon="5.74629">
        <ele>379</ele>
        <time>2017-10-18T10:09:38Z</time>
      </trkpt>
      <trkpt lat="43.27838" lon="5.74629">
        <ele>379</ele>
        <time>2017-10-18T10:09:39Z</time>
      </trkpt>
      <trkpt lat="43.27807" lon="5.74611">
        <ele>382.5</ele>
        <time>2017-10-18T10:10:11Z</time>
      </trkpt>
      <trkpt lat="43.27789" lon="5.7461">
        <ele>382.8</ele>
        <time>2017-10-18T10:10:28Z</time>
      </trkpt>
      <trkpt lat="43.27772" lon="5.74611">
        <ele>382.6</ele>
        <time>2017-10-18T10:10:44Z</time>
      </trkpt>
      <trkpt lat="43.27771" lon="5.74611">
        <ele>382.6</ele>
        <time>2017-10-18T10:10:45Z</time>
      </trkpt>
      <trkpt lat="43.27741" lon="5.74631">
        <ele>391.2</ele>
        <time>2017-10-18T10:11:17Z</time>
      </trkpt>
      <trkpt lat="43.27731" lon="5.7465">
        <ele>392.7</ele>
        <time>2017-10-18T10:11:34Z</time>
      </trkpt>
      <trkpt lat="43.27722" lon="5.74671">
        <ele>394.2</ele>
        <time>2017-10-18T10:11:52Z</time>
      </trkpt>
      <trkpt lat="43.27722" lon="5.74673">
        <ele>394.5</ele>
        <time>2017-10-18T10:11:53Z</time>
      </trkpt>
      <trkpt lat="43.27703" lon="5.74712">
        <ele>396.2</ele>
        <time>2017-10-18T10:12:26Z</time>
      </trkpt>
      <trkpt lat="43.27694" lon="5.74733">
        <ele>397.5</ele>
        <time>2017-10-18T10:12:42Z</time>
      </trkpt>
      <trkpt lat="43.27684" lon="5.74752">
        <ele>398.5</ele>
        <time>2017-10-18T10:12:58Z</time>
      </trkpt>
      <trkpt lat="43.27683" lon="5.74753">
        <ele>398.5</ele>
        <time>2017-10-18T10:12:59Z</time>
      </trkpt>
      <trkpt lat="43.27659" lon="5.74785">
        <ele>398.7</ele>
        <time>2017-10-18T10:13:37Z</time>
      </trkpt>
      <trkpt lat="43.27645" lon="5.748">
        <ele>400.7</ele>
        <time>2017-10-18T10:13:55Z</time>
      </trkpt>
      <trkpt lat="43.27633" lon="5.74817">
        <ele>402.8</ele>
        <time>2017-10-18T10:14:10Z</time>
      </trkpt>
      <trkpt lat="43.27632" lon="5.74818">
        <ele>403.2</ele>
        <time>2017-10-18T10:14:11Z</time>
      </trkpt>
      <trkpt lat="43.27616" lon="5.7486">
        <ele>407.3</ele>
        <time>2017-10-18T10:14:44Z</time>
      </trkpt>
      <trkpt lat="43.27609" lon="5.74881">
        <ele>408.3</ele>
        <time>2017-10-18T10:14:59Z</time>
      </trkpt>
      <trkpt lat="43.27601" lon="5.74902">
        <ele>411.7</ele>
        <time>2017-10-18T10:15:15Z</time>
      </trkpt>
      <trkpt lat="43.27601" lon="5.74903">
        <ele>412.2</ele>
        <time>2017-10-18T10:15:16Z</time>
      </trkpt>
      <trkpt lat="43.27586" lon="5.74944">
        <ele>411.6</ele>
        <time>2017-10-18T10:15:46Z</time>
      </trkpt>
      <trkpt lat="43.27578" lon="5.74967">
        <ele>412.6</ele>
        <time>2017-10-18T10:16:03Z</time>
      </trkpt>
      <trkpt lat="43.2757" lon="5.74989">
        <ele>414.1</ele>
        <time>2017-10-18T10:16:20Z</time>
      </trkpt>
      <trkpt lat="43.2757" lon="5.7499">
        <ele>414.1</ele>
        <time>2017-10-18T10:16:21Z</time>
      </trkpt>
      <trkpt lat="43.2756" lon="5.75034">
        <ele>418.3</ele>
        <time>2017-10-18T10:17:02Z</time>
      </trkpt>
      <trkpt lat="43.27557" lon="5.75058">
        <ele>417.8</ele>
        <time>2017-10-18T10:17:19Z</time>
      </trkpt>
      <trkpt lat="43.27555" lon="5.75082">
        <ele>417</ele>
        <time>2017-10-18T10:17:35Z</time>
      </trkpt>
      <trkpt lat="43.27556" lon="5.75084">
        <ele>417</ele>
        <time>2017-10-18T10:17:36Z</time>
      </trkpt>
      <trkpt lat="43.27554" lon="5.75129">
        <ele>420.1</ele>
        <time>2017-10-18T10:18:06Z</time>
      </trkpt>
      <trkpt lat="43.27554" lon="5.75153">
        <ele>421.3</ele>
        <time>2017-10-18T10:18:22Z</time>
      </trkpt>
      <trkpt lat="43.2756" lon="5.75176">
        <ele>419.7</ele>
        <time>2017-10-18T10:18:39Z</time>
      </trkpt>
      <trkpt lat="43.27561" lon="5.75177">
        <ele>419.7</ele>
        <time>2017-10-18T10:18:40Z</time>
      </trkpt>
      <trkpt lat="43.2756" lon="5.75223">
        <ele>423.7</ele>
        <time>2017-10-18T10:20:48Z</time>
      </trkpt>
      <trkpt lat="43.2756" lon="5.75224">
        <ele>423.7</ele>
        <time>2017-10-18T10:20:49Z</time>
      </trkpt>
      <trkpt lat="43.2755" lon="5.75268">
        <ele>420.2</ele>
        <time>2017-10-18T10:21:33Z</time>
      </trkpt>
      <trkpt lat="43.27539" lon="5.75287">
        <ele>419.7</ele>
        <time>2017-10-18T10:21:55Z</time>
      </trkpt>
      <trkpt lat="43.27538" lon="5.75288">
        <ele>419.7</ele>
        <time>2017-10-18T10:21:56Z</time>
      </trkpt>
      <trkpt lat="43.27529" lon="5.75309">
        <ele>412.6</ele>
        <time>2017-10-18T12:01:02Z</time>
      </trkpt>
      <trkpt lat="43.27504" lon="5.75342">
        <ele>412.7</ele>
        <time>2017-10-18T12:01:41Z</time>
      </trkpt>
      <trkpt lat="43.27492" lon="5.75358">
        <ele>412.7</ele>
        <time>2017-10-18T12:01:58Z</time>
      </trkpt>
      <trkpt lat="43.27479" lon="5.75375">
        <ele>411.6</ele>
        <time>2017-10-18T12:02:17Z</time>
      </trkpt>
      <trkpt lat="43.27478" lon="5.75376">
        <ele>411.5</ele>
        <time>2017-10-18T12:02:18Z</time>
      </trkpt>
      <trkpt lat="43.27456" lon="5.75409">
        <ele>409.6</ele>
        <time>2017-10-18T12:02:49Z</time>
      </trkpt>
      <trkpt lat="43.27445" lon="5.75427">
        <ele>409.7</ele>
        <time>2017-10-18T12:03:06Z</time>
      </trkpt>
      <trkpt lat="43.27435" lon="5.75447">
        <ele>405.2</ele>
        <time>2017-10-18T12:03:27Z</time>
      </trkpt>
      <trkpt lat="43.27434" lon="5.75447">
        <ele>405.1</ele>
        <time>2017-10-18T12:03:28Z</time>
      </trkpt>
      <trkpt lat="43.27412" lon="5.75484">
        <ele>400.7</ele>
        <time>2017-10-18T12:04:04Z</time>
      </trkpt>
      <trkpt lat="43.274" lon="5.75502">
        <ele>398.2</ele>
        <time>2017-10-18T12:04:23Z</time>
      </trkpt>
      <trkpt lat="43.27387" lon="5.75519">
        <ele>395.6</ele>
        <time>2017-10-18T12:04:44Z</time>
      </trkpt>
      <trkpt lat="43.27386" lon="5.7552">
        <ele>395.5</ele>
        <time>2017-10-18T12:04:45Z</time>
      </trkpt>
      <trkpt lat="43.2736" lon="5.7555">
        <ele>393.8</ele>
        <time>2017-10-18T12:05:20Z</time>
      </trkpt>
      <trkpt lat="43.27346" lon="5.75562">
        <ele>392.2</ele>
        <time>2017-10-18T12:05:37Z</time>
      </trkpt>
      <trkpt lat="43.2733" lon="5.75574">
        <ele>394.2</ele>
        <time>2017-10-18T12:05:53Z</time>
      </trkpt>
      <trkpt lat="43.27329" lon="5.75574">
        <ele>394.2</ele>
        <time>2017-10-18T12:05:54Z</time>
      </trkpt>
      <trkpt lat="43.27299" lon="5.75596">
        <ele>392.7</ele>
        <time>2017-10-18T12:06:27Z</time>
      </trkpt>
      <trkpt lat="43.27283" lon="5.75604">
        <ele>393.1</ele>
        <time>2017-10-18T12:06:44Z</time>
      </trkpt>
      <trkpt lat="43.27266" lon="5.75609">
        <ele>394</ele>
        <time>2017-10-18T12:07:05Z</time>
      </trkpt>
      <trkpt lat="43.27265" lon="5.75609">
        <ele>393.8</ele>
        <time>2017-10-18T12:07:06Z</time>
      </trkpt>
      <trkpt lat="43.27233" lon="5.75613">
        <ele>392.5</ele>
        <time>2017-10-18T12:08:49Z</time>
      </trkpt>
      <trkpt lat="43.27232" lon="5.75613">
        <ele>392.2</ele>
        <time>2017-10-18T12:08:50Z</time>
      </trkpt>
      <trkpt lat="43.27199" lon="5.75602">
        <ele>391.7</ele>
        <time>2017-10-18T12:09:25Z</time>
      </trkpt>
      <trkpt lat="43.27183" lon="5.75593">
        <ele>392.1</ele>
        <time>2017-10-18T12:09:43Z</time>
      </trkpt>
      <trkpt lat="43.27167" lon="5.75584">
        <ele>391.3</ele>
        <time>2017-10-18T12:10:00Z</time>
      </trkpt>
      <trkpt lat="43.27166" lon="5.75584">
        <ele>391.2</ele>
        <time>2017-10-18T12:10:01Z</time>
      </trkpt>
      <trkpt lat="43.27136" lon="5.7556">
        <ele>388.7</ele>
        <time>2017-10-18T12:10:37Z</time>
      </trkpt>
      <trkpt lat="43.27121" lon="5.75549">
        <ele>387.5</ele>
        <time>2017-10-18T12:10:54Z</time>
      </trkpt>
      <trkpt lat="43.27105" lon="5.75541">
        <ele>387.2</ele>
        <time>2017-10-18T12:11:10Z</time>
      </trkpt>
      <trkpt lat="43.27104" lon="5.75541">
        <ele>387.2</ele>
        <time>2017-10-18T12:11:11Z</time>
      </trkpt>
      <trkpt lat="43.27071" lon="5.75541">
        <ele>386.1</ele>
        <time>2017-10-18T12:11:43Z</time>
      </trkpt>
      <trkpt lat="43.27053" lon="5.75546">
        <ele>386.6</ele>
        <time>2017-10-18T12:12:00Z</time>
      </trkpt>
      <trkpt lat="43.27038" lon="5.75559">
        <ele>384.6</ele>
        <time>2017-10-18T12:12:20Z</time>
      </trkpt>
      <trkpt lat="43.27038" lon="5.7556">
        <ele>384.3</ele>
        <time>2017-10-18T12:12:21Z</time>
      </trkpt>
      <trkpt lat="43.27038" lon="5.75604">
        <ele>383.7</ele>
        <time>2017-10-18T12:12:59Z</time>
      </trkpt>
      <trkpt lat="43.27053" lon="5.75618">
        <ele>383.7</ele>
        <time>2017-10-18T12:13:17Z</time>
      </trkpt>
      <trkpt lat="43.27067" lon="5.75631">
        <ele>382.5</ele>
        <time>2017-10-18T12:13:34Z</time>
      </trkpt>
      <trkpt lat="43.27068" lon="5.75632">
        <ele>382.3</ele>
        <time>2017-10-18T12:13:35Z</time>
      </trkpt>
      <trkpt lat="43.2709" lon="5.75667">
        <ele>375.2</ele>
        <time>2017-10-18T12:14:11Z</time>
      </trkpt>
      <trkpt lat="43.27101" lon="5.75686">
        <ele>372.2</ele>
        <time>2017-10-18T12:14:29Z</time>
      </trkpt>
      <trkpt lat="43.27112" lon="5.75706">
        <ele>370.8</ele>
        <time>2017-10-18T12:14:45Z</time>
      </trkpt>
      <trkpt lat="43.27112" lon="5.75707">
        <ele>370.7</ele>
        <time>2017-10-18T12:14:46Z</time>
      </trkpt>
      <trkpt lat="43.27122" lon="5.75753">
        <ele>375.5</ele>
        <time>2017-10-18T12:15:14Z</time>
      </trkpt>
      <trkpt lat="43.27129" lon="5.75775">
        <ele>373.7</ele>
        <time>2017-10-18T12:15:30Z</time>
      </trkpt>
      <trkpt lat="43.27134" lon="5.75798">
        <ele>373.7</ele>
        <time>2017-10-18T12:15:45Z</time>
      </trkpt>
      <trkpt lat="43.27141" lon="5.75819">
        <ele>370.5</ele>
        <time>2017-10-18T12:16:02Z</time>
      </trkpt>
      <trkpt lat="43.27142" lon="5.7582">
        <ele>370.3</ele>
        <time>2017-10-18T12:16:03Z</time>
      </trkpt>
      <trkpt lat="43.27164" lon="5.75854">
        <ele>366.1</ele>
        <time>2017-10-18T12:16:36Z</time>
      </trkpt>
      <trkpt lat="43.27174" lon="5.75875">
        <ele>360.1</ele>
        <time>2017-10-18T12:16:55Z</time>
      </trkpt>
      <trkpt lat="43.27175" lon="5.75898">
        <ele>360.3</ele>
        <time>2017-10-18T12:17:13Z</time>
      </trkpt>
      <trkpt lat="43.27174" lon="5.759">
        <ele>360.3</ele>
        <time>2017-10-18T12:17:14Z</time>
      </trkpt>
      <trkpt lat="43.27171" lon="5.75946">
        <ele>359.2</ele>
        <time>2017-10-18T12:17:43Z</time>
      </trkpt>
      <trkpt lat="43.27175" lon="5.75969">
        <ele>355</ele>
        <time>2017-10-18T12:18:02Z</time>
      </trkpt>
      <trkpt lat="43.27178" lon="5.75993">
        <ele>355.7</ele>
        <time>2017-10-18T12:18:27Z</time>
      </trkpt>
      <trkpt lat="43.27178" lon="5.75994">
        <ele>356.1</ele>
        <time>2017-10-18T12:18:28Z</time>
      </trkpt>
      <trkpt lat="43.2717" lon="5.76016">
        <ele>363.3</ele>
        <time>2017-10-18T12:22:06Z</time>
      </trkpt>
      <trkpt lat="43.2715" lon="5.75983">
        <ele>358.1</ele>
        <time>2017-10-18T12:23:04Z</time>
      </trkpt>
      <trkpt lat="43.27148" lon="5.7596">
        <ele>359</ele>
        <time>2017-10-18T12:23:21Z</time>
      </trkpt>
      <trkpt lat="43.27148" lon="5.75959">
        <ele>359.1</ele>
        <time>2017-10-18T12:23:22Z</time>
      </trkpt>
      <trkpt lat="43.27144" lon="5.75912">
        <ele>355.6</ele>
        <time>2017-10-18T12:23:57Z</time>
      </trkpt>
      <trkpt lat="43.27132" lon="5.75896">
        <ele>351.7</ele>
        <time>2017-10-18T12:24:18Z</time>
      </trkpt>
      <trkpt lat="43.27116" lon="5.75887">
        <ele>344.7</ele>
        <time>2017-10-18T12:24:37Z</time>
      </trkpt>
      <trkpt lat="43.27115" lon="5.75888">
        <ele>345.1</ele>
        <time>2017-10-18T12:24:38Z</time>
      </trkpt>
      <trkpt lat="43.27081" lon="5.75892">
        <ele>348.7</ele>
        <time>2017-10-18T12:25:07Z</time>
      </trkpt>
      <trkpt lat="43.27064" lon="5.75896">
        <ele>349.3</ele>
        <time>2017-10-18T12:25:22Z</time>
      </trkpt>
      <trkpt lat="43.27047" lon="5.75901">
        <ele>342.7</ele>
        <time>2017-10-18T12:25:39Z</time>
      </trkpt>
      <trkpt lat="43.27046" lon="5.75901">
        <ele>343.2</ele>
        <time>2017-10-18T12:25:40Z</time>
      </trkpt>
      <trkpt lat="43.27015" lon="5.75894">
        <ele>351</ele>
        <time>2017-10-18T12:26:05Z</time>
      </trkpt>
      <trkpt lat="43.26998" lon="5.75897">
        <ele>352</ele>
        <time>2017-10-18T12:26:20Z</time>
      </trkpt>
      <trkpt lat="43.26981" lon="5.75899">
        <ele>349.7</ele>
        <time>2017-10-18T12:26:37Z</time>
      </trkpt>
      <trkpt lat="43.26963" lon="5.75899">
        <ele>339.6</ele>
        <time>2017-10-18T12:26:56Z</time>
      </trkpt>
      <trkpt lat="43.26961" lon="5.75899">
        <ele>340.3</ele>
        <time>2017-10-18T12:26:57Z</time>
      </trkpt>
      <trkpt lat="43.26929" lon="5.75908">
        <ele>350.6</ele>
        <time>2017-10-18T12:27:23Z</time>
      </trkpt>
      <trkpt lat="43.26911" lon="5.75908">
        <ele>359.2</ele>
        <time>2017-10-18T12:27:40Z</time>
      </trkpt>
      <trkpt lat="43.26903" lon="5.7593">
        <ele>358.2</ele>
        <time>2017-10-18T12:28:01Z</time>
      </trkpt>
      <trkpt lat="43.26903" lon="5.75932">
        <ele>358.2</ele>
        <time>2017-10-18T12:28:02Z</time>
      </trkpt>
      <trkpt lat="43.26907" lon="5.75977">
        <ele>362</ele>
        <time>2017-10-18T12:28:31Z</time>
      </trkpt>
      <trkpt lat="43.26916" lon="5.75998">
        <ele>356.3</ele>
        <time>2017-10-18T12:28:50Z</time>
      </trkpt>
      <trkpt lat="43.26925" lon="5.76018">
        <ele>355.7</ele>
        <time>2017-10-18T12:29:08Z</time>
      </trkpt>
      <trkpt lat="43.26926" lon="5.76019">
        <ele>355.5</ele>
        <time>2017-10-18T12:29:09Z</time>
      </trkpt>
      <trkpt lat="43.26936" lon="5.76062">
        <ele>362.2</ele>
        <time>2017-10-18T12:29:39Z</time>
      </trkpt>
      <trkpt lat="43.26943" lon="5.76085">
        <ele>365.7</ele>
        <time>2017-10-18T12:29:56Z</time>
      </trkpt>
      <trkpt lat="43.26958" lon="5.76096">
        <ele>367.7</ele>
        <time>2017-10-18T12:30:13Z</time>
      </trkpt>
      <trkpt lat="43.26959" lon="5.76096">
        <ele>367.3</ele>
        <time>2017-10-18T12:30:14Z</time>
      </trkpt>
      <trkpt lat="43.26992" lon="5.76105">
        <ele>362</ele>
        <time>2017-10-18T12:30:53Z</time>
      </trkpt>
      <trkpt lat="43.27008" lon="5.76112">
        <ele>361.7</ele>
        <time>2017-10-18T12:31:13Z</time>
      </trkpt>
      <trkpt lat="43.27026" lon="5.76115">
        <ele>365.2</ele>
        <time>2017-10-18T12:31:49Z</time>
      </trkpt>
      <trkpt lat="43.27027" lon="5.76115">
        <ele>365.8</ele>
        <time>2017-10-18T12:31:50Z</time>
      </trkpt>
      <trkpt lat="43.27027" lon="5.7614">
        <ele>367.8</ele>
        <time>2017-10-18T12:36:56Z</time>
      </trkpt>
      <trkpt lat="43.27024" lon="5.76188">
        <ele>365.2</ele>
        <time>2017-10-18T12:37:34Z</time>
      </trkpt>
      <trkpt lat="43.27019" lon="5.76211">
        <ele>367.2</ele>
        <time>2017-10-18T12:38:10Z</time>
      </trkpt>
      <trkpt lat="43.27019" lon="5.76211">
        <ele>367.3</ele>
        <time>2017-10-18T12:38:11Z</time>
      </trkpt>
      <trkpt lat="43.27003" lon="5.76253">
        <ele>369.3</ele>
        <time>2017-10-18T12:39:28Z</time>
      </trkpt>
      <trkpt lat="43.27002" lon="5.76254">
        <ele>369.2</ele>
        <time>2017-10-18T12:39:29Z</time>
      </trkpt>
      <trkpt lat="43.26989" lon="5.76298">
        <ele>367.3</ele>
        <time>2017-10-18T12:40:05Z</time>
      </trkpt>
      <trkpt lat="43.26983" lon="5.7632">
        <ele>368.7</ele>
        <time>2017-10-18T12:40:21Z</time>
      </trkpt>
      <trkpt lat="43.2698" lon="5.76344">
        <ele>369.3</ele>
        <time>2017-10-18T12:40:35Z</time>
      </trkpt>
      <trkpt lat="43.2698" lon="5.76345">
        <ele>369.2</ele>
        <time>2017-10-18T12:40:36Z</time>
      </trkpt>
      <trkpt lat="43.26997" lon="5.76384">
        <ele>363.8</ele>
        <time>2017-10-18T12:41:11Z</time>
      </trkpt>
      <trkpt lat="43.27013" lon="5.76393">
        <ele>368.7</ele>
        <time>2017-10-18T12:41:25Z</time>
      </trkpt>
      <trkpt lat="43.27028" lon="5.76404">
        <ele>371.7</ele>
        <time>2017-10-18T12:41:39Z</time>
      </trkpt>
      <trkpt lat="43.27029" lon="5.76404">
        <ele>372.2</ele>
        <time>2017-10-18T12:41:40Z</time>
      </trkpt>
      <trkpt lat="43.27059" lon="5.76427">
        <ele>373.1</ele>
        <time>2017-10-18T12:42:12Z</time>
      </trkpt>
      <trkpt lat="43.27076" lon="5.76434">
        <ele>371.1</ele>
        <time>2017-10-18T12:42:31Z</time>
      </trkpt>
      <trkpt lat="43.27093" lon="5.76441">
        <ele>375.7</ele>
        <time>2017-10-18T12:42:48Z</time>
      </trkpt>
      <trkpt lat="43.27093" lon="5.76442">
        <ele>375.6</ele>
        <time>2017-10-18T12:42:49Z</time>
      </trkpt>
      <trkpt lat="43.27122" lon="5.76466">
        <ele>369.7</ele>
        <time>2017-10-18T12:43:20Z</time>
      </trkpt>
      <trkpt lat="43.2713" lon="5.76488">
        <ele>367.7</ele>
        <time>2017-10-18T12:43:36Z</time>
      </trkpt>
      <trkpt lat="43.2713" lon="5.76512">
        <ele>370.3</ele>
        <time>2017-10-18T12:43:52Z</time>
      </trkpt>
      <trkpt lat="43.2713" lon="5.76513">
        <ele>370.7</ele>
        <time>2017-10-18T12:43:53Z</time>
      </trkpt>
      <trkpt lat="43.27115" lon="5.76554">
        <ele>377.2</ele>
        <time>2017-10-18T12:44:24Z</time>
      </trkpt>
      <trkpt lat="43.27106" lon="5.76574">
        <ele>382.3</ele>
        <time>2017-10-18T12:44:39Z</time>
      </trkpt>
      <trkpt lat="43.27096" lon="5.76594">
        <ele>378.7</ele>
        <time>2017-10-18T12:44:56Z</time>
      </trkpt>
      <trkpt lat="43.27095" lon="5.76595">
        <ele>379.2</ele>
        <time>2017-10-18T12:44:57Z</time>
      </trkpt>
      <trkpt lat="43.27071" lon="5.76626">
        <ele>379.8</ele>
        <time>2017-10-18T12:45:26Z</time>
      </trkpt>
      <trkpt lat="43.27058" lon="5.76644">
        <ele>374.7</ele>
        <time>2017-10-18T12:45:44Z</time>
      </trkpt>
      <trkpt lat="43.27048" lon="5.76663">
        <ele>376.5</ele>
        <time>2017-10-18T12:46:05Z</time>
      </trkpt>
      <trkpt lat="43.27048" lon="5.76664">
        <ele>376.7</ele>
        <time>2017-10-18T12:46:06Z</time>
      </trkpt>
      <trkpt lat="43.27035" lon="5.76681">
        <ele>385.3</ele>
        <time>2017-10-18T12:47:53Z</time>
      </trkpt>
      <trkpt lat="43.27011" lon="5.76704">
        <ele>392.5</ele>
        <time>2017-10-18T12:50:19Z</time>
      </trkpt>
      <trkpt lat="43.27011" lon="5.76705">
        <ele>392.3</ele>
        <time>2017-10-18T12:50:20Z</time>
      </trkpt>
      <trkpt lat="43.26997" lon="5.76746">
        <ele>401.2</ele>
        <time>2017-10-18T12:51:33Z</time>
      </trkpt>
      <trkpt lat="43.26997" lon="5.76747">
        <ele>401.2</ele>
        <time>2017-10-18T12:51:34Z</time>
      </trkpt>
      <trkpt lat="43.2702" lon="5.76784">
        <ele>399.6</ele>
        <time>2017-10-18T12:52:31Z</time>
      </trkpt>
      <trkpt lat="43.27024" lon="5.76807">
        <ele>404.5</ele>
        <time>2017-10-18T12:53:27Z</time>
      </trkpt>
      <trkpt lat="43.27023" lon="5.76808">
        <ele>404.6</ele>
        <time>2017-10-18T12:53:28Z</time>
      </trkpt>
      <trkpt lat="43.26997" lon="5.76809">
        <ele>402.2</ele>
        <time>2017-10-18T12:55:02Z</time>
      </trkpt>
      <trkpt lat="43.26997" lon="5.76808">
        <ele>401.7</ele>
        <time>2017-10-18T12:55:03Z</time>
      </trkpt>
      <trkpt lat="43.26979" lon="5.76769">
        <ele>398.2</ele>
        <time>2017-10-18T12:55:27Z</time>
      </trkpt>
      <trkpt lat="43.2699" lon="5.76787">
        <ele>407.6</ele>
        <time>2017-10-18T12:56:12Z</time>
      </trkpt>
      <trkpt lat="43.2699" lon="5.76788">
        <ele>407.6</ele>
        <time>2017-10-18T12:56:13Z</time>
      </trkpt>
      <trkpt lat="43.27013" lon="5.76823">
        <ele>410.2</ele>
        <time>2017-10-18T12:56:49Z</time>
      </trkpt>
      <trkpt lat="43.27025" lon="5.7684">
        <ele>412</ele>
        <time>2017-10-18T12:57:08Z</time>
      </trkpt>
      <trkpt lat="43.27036" lon="5.7686">
        <ele>416.5</ele>
        <time>2017-10-18T12:57:30Z</time>
      </trkpt>
      <trkpt lat="43.27037" lon="5.7686">
        <ele>416.7</ele>
        <time>2017-10-18T12:57:31Z</time>
      </trkpt>
      <trkpt lat="43.2706" lon="5.76893">
        <ele>412.2</ele>
        <time>2017-10-18T12:58:01Z</time>
      </trkpt>
      <trkpt lat="43.27075" lon="5.76905">
        <ele>411.7</ele>
        <time>2017-10-18T12:58:19Z</time>
      </trkpt>
      <trkpt lat="43.27087" lon="5.76923">
        <ele>408.2</ele>
        <time>2017-10-18T12:58:35Z</time>
      </trkpt>
      <trkpt lat="43.27087" lon="5.76923">
        <ele>408.1</ele>
        <time>2017-10-18T12:58:36Z</time>
      </trkpt>
      <trkpt lat="43.27095" lon="5.76945">
        <ele>413.7</ele>
        <time>2017-10-18T13:02:56Z</time>
      </trkpt>
      <trkpt lat="43.27087" lon="5.76921">
        <ele>409.6</ele>
        <time>2017-10-18T13:06:29Z</time>
      </trkpt>
      <trkpt lat="43.27058" lon="5.76895">
        <ele>405.6</ele>
        <time>2017-10-18T13:07:07Z</time>
      </trkpt>
      <trkpt lat="43.27047" lon="5.76877">
        <ele>407</ele>
        <time>2017-10-18T13:07:22Z</time>
      </trkpt>
      <trkpt lat="43.27036" lon="5.76859">
        <ele>405.5</ele>
        <time>2017-10-18T13:07:36Z</time>
      </trkpt>
      <trkpt lat="43.27035" lon="5.76857">
        <ele>405.5</ele>
        <time>2017-10-18T13:07:37Z</time>
      </trkpt>
      <trkpt lat="43.27014" lon="5.76821">
        <ele>412.1</ele>
        <time>2017-10-18T13:08:04Z</time>
      </trkpt>
      <trkpt lat="43.27001" lon="5.76806">
        <ele>407</ele>
        <time>2017-10-18T13:08:22Z</time>
      </trkpt>
      <trkpt lat="43.26991" lon="5.76786">
        <ele>402.7</ele>
        <time>2017-10-18T13:08:41Z</time>
      </trkpt>
      <trkpt lat="43.2699" lon="5.76785">
        <ele>402.5</ele>
        <time>2017-10-18T13:08:42Z</time>
      </trkpt>
      <trkpt lat="43.26972" lon="5.76747">
        <ele>406.2</ele>
        <time>2017-10-18T13:09:10Z</time>
      </trkpt>
      <trkpt lat="43.26963" lon="5.76727">
        <ele>399.7</ele>
        <time>2017-10-18T13:09:31Z</time>
      </trkpt>
      <trkpt lat="43.26955" lon="5.76706">
        <ele>400.1</ele>
        <time>2017-10-18T13:09:47Z</time>
      </trkpt>
      <trkpt lat="43.26955" lon="5.76704">
        <ele>400.5</ele>
        <time>2017-10-18T13:09:48Z</time>
      </trkpt>
      <trkpt lat="43.26942" lon="5.7666">
        <ele>399.7</ele>
        <time>2017-10-18T13:10:25Z</time>
      </trkpt>
      <trkpt lat="43.26931" lon="5.7664">
        <ele>398.7</ele>
        <time>2017-10-18T13:10:42Z</time>
      </trkpt>
      <trkpt lat="43.26922" lon="5.7662">
        <ele>399.5</ele>
        <time>2017-10-18T13:10:59Z</time>
      </trkpt>
      <trkpt lat="43.26921" lon="5.76618">
        <ele>399.5</ele>
        <time>2017-10-18T13:11:00Z</time>
      </trkpt>
      <trkpt lat="43.26912" lon="5.76574">
        <ele>391.7</ele>
        <time>2017-10-18T13:11:34Z</time>
      </trkpt>
      <trkpt lat="43.26907" lon="5.76551">
        <ele>385.5</ele>
        <time>2017-10-18T13:11:52Z</time>
      </trkpt>
      <trkpt lat="43.26902" lon="5.76529">
        <ele>385.8</ele>
        <time>2017-10-18T13:12:07Z</time>
      </trkpt>
      <trkpt lat="43.26901" lon="5.76527">
        <ele>386.2</ele>
        <time>2017-10-18T13:12:08Z</time>
      </trkpt>
      <trkpt lat="43.26887" lon="5.76486">
        <ele>394.8</ele>
        <time>2017-10-18T13:12:35Z</time>
      </trkpt>
      <trkpt lat="43.2688" lon="5.76464">
        <ele>397.8</ele>
        <time>2017-10-18T13:12:51Z</time>
      </trkpt>
      <trkpt lat="43.26874" lon="5.76441">
        <ele>403.3</ele>
        <time>2017-10-18T13:13:08Z</time>
      </trkpt>
      <trkpt lat="43.26873" lon="5.7644">
        <ele>403.1</ele>
        <time>2017-10-18T13:13:09Z</time>
      </trkpt>
      <trkpt lat="43.26865" lon="5.76394">
        <ele>394.3</ele>
        <time>2017-10-18T13:13:44Z</time>
      </trkpt>
      <trkpt lat="43.26858" lon="5.76373">
        <ele>390.3</ele>
        <time>2017-10-18T13:14:01Z</time>
      </trkpt>
      <trkpt lat="43.26846" lon="5.76356">
        <ele>388.2</ele>
        <time>2017-10-18T13:14:12Z</time>
      </trkpt>
      <trkpt lat="43.26846" lon="5.76355">
        <ele>388.3</ele>
        <time>2017-10-18T13:14:13Z</time>
      </trkpt>
      <trkpt lat="43.26831" lon="5.76313">
        <ele>395.3</ele>
        <time>2017-10-18T13:14:48Z</time>
      </trkpt>
      <trkpt lat="43.26824" lon="5.76291">
        <ele>400.6</ele>
        <time>2017-10-18T13:16:48Z</time>
      </trkpt>
      <trkpt lat="43.26823" lon="5.76291">
        <ele>400.1</ele>
        <time>2017-10-18T13:16:49Z</time>
      </trkpt>
      <trkpt lat="43.26797" lon="5.7626">
        <ele>394.3</ele>
        <time>2017-10-18T13:17:29Z</time>
      </trkpt>
      <trkpt lat="43.26791" lon="5.76238">
        <ele>393.1</ele>
        <time>2017-10-18T13:17:47Z</time>
      </trkpt>
      <trkpt lat="43.2678" lon="5.7622">
        <ele>396.2</ele>
        <time>2017-10-18T13:18:02Z</time>
      </trkpt>
      <trkpt lat="43.26779" lon="5.76218">
        <ele>396.2</ele>
        <time>2017-10-18T13:18:03Z</time>
      </trkpt>
      <trkpt lat="43.26762" lon="5.7618">
        <ele>398.2</ele>
        <time>2017-10-18T13:18:35Z</time>
      </trkpt>
      <trkpt lat="43.26754" lon="5.76158">
        <ele>397</ele>
        <time>2017-10-18T13:18:51Z</time>
      </trkpt>
      <trkpt lat="43.26744" lon="5.7614">
        <ele>399.2</ele>
        <time>2017-10-18T13:19:06Z</time>
      </trkpt>
      <trkpt lat="43.26743" lon="5.76139">
        <ele>399.1</ele>
        <time>2017-10-18T13:19:07Z</time>
      </trkpt>
      <trkpt lat="43.26715" lon="5.76114">
        <ele>402.2</ele>
        <time>2017-10-18T13:19:34Z</time>
      </trkpt>
      <trkpt lat="43.26699" lon="5.76104">
        <ele>401.3</ele>
        <time>2017-10-18T13:19:49Z</time>
      </trkpt>
      <trkpt lat="43.26685" lon="5.76091">
        <ele>404.2</ele>
        <time>2017-10-18T13:20:05Z</time>
      </trkpt>
      <trkpt lat="43.26673" lon="5.76109">
        <ele>409.8</ele>
        <time>2017-10-18T13:20:50Z</time>
      </trkpt>
      <trkpt lat="43.26672" lon="5.76111">
        <ele>409.7</ele>
        <time>2017-10-18T13:20:51Z</time>
      </trkpt>
      <trkpt lat="43.26667" lon="5.76157">
        <ele>407.7</ele>
        <time>2017-10-18T13:21:23Z</time>
      </trkpt>
      <trkpt lat="43.26666" lon="5.76181">
        <ele>408.2</ele>
        <time>2017-10-18T13:21:38Z</time>
      </trkpt>
      <trkpt lat="43.26665" lon="5.76205">
        <ele>407.5</ele>
        <time>2017-10-18T13:21:54Z</time>
      </trkpt>
      <trkpt lat="43.26665" lon="5.76206">
        <ele>407.2</ele>
        <time>2017-10-18T13:21:55Z</time>
      </trkpt>
      <trkpt lat="43.26656" lon="5.76251">
        <ele>405.5</ele>
        <time>2017-10-18T13:22:25Z</time>
      </trkpt>
      <trkpt lat="43.26647" lon="5.76271">
        <ele>406</ele>
        <time>2017-10-18T13:22:39Z</time>
      </trkpt>
      <trkpt lat="43.26636" lon="5.76291">
        <ele>405.8</ele>
        <time>2017-10-18T13:22:54Z</time>
      </trkpt>
      <trkpt lat="43.26625" lon="5.76309">
        <ele>406</ele>
        <time>2017-10-18T13:23:09Z</time>
      </trkpt>
      <trkpt lat="43.26624" lon="5.7631">
        <ele>406.2</ele>
        <time>2017-10-18T13:23:10Z</time>
      </trkpt>
      <trkpt lat="43.26603" lon="5.76348">
        <ele>409.1</ele>
        <time>2017-10-18T13:23:44Z</time>
      </trkpt>
      <trkpt lat="43.26593" lon="5.76367">
        <ele>409.8</ele>
        <time>2017-10-18T13:24:00Z</time>
      </trkpt>
      <trkpt lat="43.26583" lon="5.76387">
        <ele>410.1</ele>
        <time>2017-10-18T13:24:15Z</time>
      </trkpt>
      <trkpt lat="43.26582" lon="5.76388">
        <ele>410.1</ele>
        <time>2017-10-18T13:24:16Z</time>
      </trkpt>
      <trkpt lat="43.26558" lon="5.76418">
        <ele>408.2</ele>
        <time>2017-10-18T13:24:45Z</time>
      </trkpt>
      <trkpt lat="43.26543" lon="5.76431">
        <ele>403.7</ele>
        <time>2017-10-18T13:25:02Z</time>
      </trkpt>
      <trkpt lat="43.26528" lon="5.76444">
        <ele>400.6</ele>
        <time>2017-10-18T13:25:19Z</time>
      </trkpt>
      <trkpt lat="43.26527" lon="5.76445">
        <ele>400.7</ele>
        <time>2017-10-18T13:25:20Z</time>
      </trkpt>
      <trkpt lat="43.265" lon="5.76471">
        <ele>398.1</ele>
        <time>2017-10-18T13:25:49Z</time>
      </trkpt>
      <trkpt lat="43.26483" lon="5.7648">
        <ele>400.6</ele>
        <time>2017-10-18T13:26:09Z</time>
      </trkpt>
      <trkpt lat="43.26468" lon="5.76491">
        <ele>401.5</ele>
        <time>2017-10-18T13:26:27Z</time>
      </trkpt>
      <trkpt lat="43.26467" lon="5.76492">
        <ele>401.2</ele>
        <time>2017-10-18T13:26:28Z</time>
      </trkpt>
    </trkseg>
  </trk>
</gpx>